Observation data for Fritch on 03/01/2021      Previous  Date  Next       Current Mesonet Observations  Soil Data  Daily Summary Page  Observations in Plain Language
KFR1 010600Z 07003KT 00/M11 A3023 RMK A01 T00011111  RH  043%=      5-min Rain = 0
KFR1 010601Z 07003KT 00/M11 A3023 RMK A01 T00011111  RH  043%=      5-min Rain = 0
KFR1 010602Z 07003KT 00/11 A3023 RMK A01 T00000-112  RH  043%=      5-min Rain = 0
KFR1 010603Z 06003KT M00/M11 A3022 RMK A01 T10011113  RH  043%=      5-min Rain = 0
KFR1 010604Z 06003KT 00/11 A3022 RMK A01 T00000-111  RH  043%=      5-min Rain = 0
KFR1 010605Z 06004KT 00/M11 A3022 RMK A01 T00021111  RH  043%=      5-min Rain = 0
KFR1 010606Z 06004KT 00/M11 A3023 RMK A01 T00031111  RH  042%=      5-min Rain = 0
KFR1 010607Z 07003KT 00/M11 A3023 RMK A01 T00021111  RH  042%=      5-min Rain = 0
KFR1 010608Z 08003KT 00/M11 A3023 RMK A01 T00021112  RH  042%=      5-min Rain = 0
KFR1 010609Z 08003KT 00/M11 A3023 RMK A01 T00021112  RH  042%=      5-min Rain = 0
KFR1 010610Z 09003KT 00/M11 A3023 RMK A01 T00011112  RH  042%=      5-min Rain = 0
KFR1 010611Z 09003KT 00/M11 A3023 RMK A01 T00021111  RH  042%=      5-min Rain = 0
KFR1 010612Z 09003KT 00/M11 A3023 RMK A01 T00021111  RH  042%=      5-min Rain = 0
KFR1 010613Z 08003KT 00/M11 A3022 RMK A01 T00021112  RH  042%=      5-min Rain = 0
KFR1 010614Z 08003KT 00/M11 A3022 RMK A01 T00011113  RH  042%=      5-min Rain = 0
KFR1 010615Z 08003KT M00/M11 A3022 RMK A01 T10011113  RH  043%=      5-min Rain = 0
KFR1 010616Z 08004KT 00/11 A3022 RMK A01 T00-00-112  RH  043%=      5-min Rain = 0
KFR1 010617Z 08004KT M00/M11 A3022 RMK A01 T10011113  RH  043%=      5-min Rain = 0
KFR1 010618Z 08004KT M00/M11 A3022 RMK A01 T10021113  RH  043%=      5-min Rain = 0
KFR1 010619Z 08004KT M00/M11 A3023 RMK A01 T10031113  RH  043%=      5-min Rain = 0
KFR1 010620Z 09004KT M00/M11 A3023 RMK A01 T10031112  RH  044%=      5-min Rain = 0
KFR1 010621Z 10003KT M00/M11 A3023 RMK A01 T10021111  RH  044%=      5-min Rain = 0
KFR1 010622Z 09004KT M00/M11 A3023 RMK A01 T10021111  RH  043%=      5-min Rain = 0
KFR1 010623Z 09004KT M00/M11 A3023 RMK A01 T10011111  RH  043%=      5-min Rain = 0
KFR1 010624Z 09003KT M00/M11 A3023 RMK A01 T10011112  RH  043%=      5-min Rain = 0
KFR1 010625Z 09004KT M00/M11 A3023 RMK A01 T10011111  RH  043%=      5-min Rain = 0
KFR1 010626Z 08003KT 00/M11 A3023 RMK A01 T00011110  RH  043%=      5-min Rain = 0
KFR1 010627Z 08002KT 00/M11 A3023 RMK A01 T00021110  RH  043%=      5-min Rain = 0
KFR1 010628Z 07002KT 00/M11 A3023 RMK A01 T00031110  RH  043%=      5-min Rain = 0
KFR1 010629Z 07002KT 00/M11 A3023 RMK A01 T00041110  RH  042%=      5-min Rain = 0
KFR1 010630Z 08002KT 00/M11 A3023 RMK A01 T00031111  RH  042%=      5-min Rain = 0
KFR1 010631Z 08002KT 00/M11 A3023 RMK A01 T00031111  RH  042%=      5-min Rain = 0
KFR1 010632Z 09001KT 00/M11 A3023 RMK A01 T00041110  RH  042%=      5-min Rain = 0
KFR1 010633Z 09001KT 00/M11 A3023 RMK A01 T00041111  RH  042%=      5-min Rain = 0
KFR1 010634Z 10001KT 00/M11 A3023 RMK A01 T00031111  RH  042%=      5-min Rain = 0
KFR1 010635Z 08002KT 00/M11 A3023 RMK A01 T00031111  RH  042%=      5-min Rain = 0
KFR1 010636Z 07001KT 00/M11 A3023 RMK A01 T00021112  RH  042%=      5-min Rain = 0
KFR1 010637Z 04001KT 00/M11 A3023 RMK A01 T00021111  RH  042%=      5-min Rain = 0
KFR1 010638Z 02002KT 00/M11 A3023 RMK A01 T00021111  RH  042%=      5-min Rain = 0
KFR1 010639Z 03002KT 00/M11 A3023 RMK A01 T00021111  RH  043%=      5-min Rain = 0
KFR1 010640Z 03001KT 00/M11 A3023 RMK A01 T00021110  RH  043%=      5-min Rain = 0
KFR1 010641Z 02001KT 00/M11 A3023 RMK A01 T00021110  RH  043%=      5-min Rain = 0
KFR1 010642Z 02001KT 00/M11 A3023 RMK A01 T00021110  RH  043%=      5-min Rain = 0
KFR1 010643Z 01001KT 00/M11 A3023 RMK A01 T00011111  RH  043%=      5-min Rain = 0
KFR1 010644Z 02002KT 00/M11 A3023 RMK A01 T00011111  RH  043%=      5-min Rain = 0
KFR1 010645Z 01002KT 00/11 A3023 RMK A01 T00-00-111  RH  043%=      5-min Rain = 0
KFR1 010646Z 01002KT 00/11 A3023 RMK A01 T00-00-111  RH  043%=      5-min Rain = 0
KFR1 010647Z 01002KT M00/M11 A3023 RMK A01 T10011111  RH  043%=      5-min Rain = 0
KFR1 010648Z 03002KT M00/M11 A3023 RMK A01 T10011112  RH  043%=      5-min Rain = 0
KFR1 010649Z 02002KT M00/M11 A3023 RMK A01 T10021112  RH  043%=      5-min Rain = 0
KFR1 010650Z 03002KT M00/M11 A3023 RMK A01 T10021112  RH  043%=      5-min Rain = 0
KFR1 010651Z 04002KT M00/M11 A3023 RMK A01 T10021111  RH  043%=      5-min Rain = 0
KFR1 010652Z 05003KT M00/M11 A3023 RMK A01 T10021111  RH  043%=      5-min Rain = 0
KFR1 010653Z 05003KT M00/M11 A3023 RMK A01 T10021111  RH  044%=      5-min Rain = 0
KFR1 010654Z 05002KT M00/M11 A3023 RMK A01 T10011110  RH  043%=      5-min Rain = 0
KFR1 010655Z 05002KT 00/11 A3023 RMK A01 T00000-110  RH  043%=      5-min Rain = 0
KFR1 010656Z 05003KT 00/M11 A3023 RMK A01 T00011110  RH  043%=      5-min Rain = 0
KFR1 010657Z 05003KT 00/M11 A3023 RMK A01 T00011110  RH  043%=      5-min Rain = 0
KFR1 010658Z 05003KT 00/M11 A3023 RMK A01 T00021110  RH  043%=      5-min Rain = 0
KFR1 010659Z 04003KT 00/M11 A3023 RMK A01 T00011111  RH  043%=      5-min Rain = 0
KFR1 010700Z 04003KT 00/11 A3023 RMK A01 T00000-111  RH  043%=      5-min Rain = 0
KFR1 010701Z 04003KT 00/11 A3023 RMK A01 T00-00-111  RH  043%=      5-min Rain = 0
KFR1 010702Z 04002KT M00/M11 A3023 RMK A01 T10011111  RH  043%=      5-min Rain = 0
KFR1 010703Z 04002KT M00/M11 A3023 RMK A01 T10021111  RH  043%=      5-min Rain = 0
KFR1 010704Z 04002KT M00/M11 A3023 RMK A01 T10021111  RH  044%=      5-min Rain = 0
KFR1 010705Z 03002KT M00/M11 A3023 RMK A01 T10021111  RH  044%=      5-min Rain = 0
KFR1 010706Z 00002KT M00/M11 A3023 RMK A01 T10031111  RH  044%=      5-min Rain = 0
KFR1 010707Z 02002KT M00/M11 A3023 RMK A01 T10031108  RH  045%=      5-min Rain = 0
KFR1 010708Z 35002KT M00/M11 A3023 RMK A01 T10031108  RH  045%=      5-min Rain = 0
KFR1 010709Z 00002KT M00/M11 A3023 RMK A01 T10031109  RH  045%=      5-min Rain = 0
KFR1 010710Z 00003KT M00/M10 A3023 RMK A01 T10031103  RH  047%=      5-min Rain = 0
KFR1 010711Z 03003KT M00/M10 A3023 RMK A01 T10031097  RH  049%=      5-min Rain = 0
KFR1 010712Z 02003KT M00/M10 A3023 RMK A01 T10031095  RH  050%=      5-min Rain = 0
KFR1 010713Z 01002KT M00/M09 A3023 RMK A01 T10021094  RH  050%=      5-min Rain = 0
KFR1 010714Z 02002KT M00/M10 A3023 RMK A01 T10031095  RH  050%=      5-min Rain = 0
KFR1 010715Z 00002KT M00/M10 A3022 RMK A01 T10021098  RH  048%=      5-min Rain = 0
KFR1 010716Z 01001KT M00/M10 A3022 RMK A01 T10031099  RH  048%=      5-min Rain = 0
KFR1 010717Z 34002KT M00/M10 A3022 RMK A01 T10041096  RH  050%=      5-min Rain = 0
KFR1 010718Z 01002KT M00/M09 A3022 RMK A01 T10041092  RH  051%=      5-min Rain = 0
KFR1 010719Z 01002KT M00/M09 A3023 RMK A01 T10041091  RH  052%=      5-min Rain = 0
KFR1 010720Z 36001KT M00/M09 A3022 RMK A01 T10041089  RH  053%=      5-min Rain = 0
KFR1 010721Z 00002KT M00/M09 A3023 RMK A01 T10041088  RH  053%=      5-min Rain = 0
KFR1 010722Z 00002KT M00/M09 A3023 RMK A01 T10041087  RH  054%=      5-min Rain = 0
KFR1 010723Z 01002KT M00/M09 A3023 RMK A01 T10041086  RH  054%=      5-min Rain = 0
KFR1 010724Z 02002KT M00/M09 A3023 RMK A01 T10041085  RH  054%=      5-min Rain = 0
KFR1 010725Z 02002KT M00/M09 A3023 RMK A01 T10041086  RH  054%=      5-min Rain = 0
KFR1 010726Z 01001KT M00/M09 A3023 RMK A01 T10041085  RH  054%=      5-min Rain = 0
KFR1 010727Z 03002KT M00/M08 A3023 RMK A01 T10041084  RH  055%=      5-min Rain = 0
KFR1 010728Z 03002KT M00/M08 A3023 RMK A01 T10041084  RH  055%=      5-min Rain = 0
KFR1 010729Z 02002KT M00/M08 A3023 RMK A01 T10041084  RH  055%=      5-min Rain = 0
KFR1 010730Z 02002KT M00/M08 A3023 RMK A01 T10041083  RH  055%=      5-min Rain = 0
KFR1 010731Z 02002KT M01/M08 A3023 RMK A01 T10051082  RH  056%=      5-min Rain = 0
KFR1 010732Z 01002KT M00/M08 A3023 RMK A01 T10041081  RH  056%=      5-min Rain = 0
KFR1 010733Z 01002KT M00/M08 A3023 RMK A01 T10041081  RH  056%=      5-min Rain = 0
KFR1 010734Z 01002KT M00/M08 A3023 RMK A01 T10041081  RH  056%=      5-min Rain = 0
KFR1 010735Z 01002KT M01/M08 A3023 RMK A01 T10051081  RH  056%=      5-min Rain = 0
KFR1 010736Z 01001KT M01/M08 A3024 RMK A01 T10051081  RH  057%=      5-min Rain = 0
KFR1 010737Z 01002KT M01/M08 A3024 RMK A01 T10051080  RH  057%=      5-min Rain = 0
KFR1 010738Z 02002KT M01/M08 A3024 RMK A01 T10051079  RH  057%=      5-min Rain = 0
KFR1 010739Z 02002KT M01/M08 A3024 RMK A01 T10061080  RH  057%=      5-min Rain = 0
KFR1 010740Z 03002KT M01/M08 A3024 RMK A01 T10061080  RH  057%=      5-min Rain = 0
KFR1 010741Z 02001KT M01/M08 A3024 RMK A01 T10061081  RH  057%=      5-min Rain = 0
KFR1 010742Z 02001KT M01/M08 A3024 RMK A01 T10061081  RH  057%=      5-min Rain = 0
KFR1 010743Z 02001KT M01/M08 A3024 RMK A01 T10061081  RH  057%=      5-min Rain = 0
KFR1 010744Z 02001KT M01/M08 A3024 RMK A01 T10061082  RH  056%=      5-min Rain = 0
KFR1 010745Z 02000KT M01/M08 A3024 RMK A01 T10071084  RH  056%=      5-min Rain = 0
KFR1 010746Z 00000KT M01/M08 A3024 RMK A01 T10071084  RH  056%=      5-min Rain = 0
KFR1 010747Z 00000KT M01/M08 A3024 RMK A01 T10071084  RH  056%=      5-min Rain = 0
KFR1 010748Z 00000KT M01/M08 A3024 RMK A01 T10071084  RH  056%=      5-min Rain = 0
KFR1 010749Z 00000KT M01/M08 A3024 RMK A01 T10081084  RH  056%=      5-min Rain = 0
KFR1 010750Z 06000KT M01/M08 A3024 RMK A01 T10081084  RH  056%=      5-min Rain = 0
KFR1 010751Z 06000KT M01/M08 A3024 RMK A01 T10091084  RH  057%=      5-min Rain = 0
KFR1 010752Z 00000KT M01/M08 A3024 RMK A01 T10091082  RH  057%=      5-min Rain = 0
KFR1 010753Z 02001KT M01/M08 A3025 RMK A01 T10081081  RH  058%=      5-min Rain = 0
KFR1 010754Z 01001KT M01/M08 A3025 RMK A01 T10091081  RH  058%=      5-min Rain = 0
KFR1 010755Z 01001KT M01/M08 A3025 RMK A01 T10081080  RH  058%=      5-min Rain = 0
KFR1 010756Z 01000KT M01/M08 A3025 RMK A01 T10081080  RH  058%=      5-min Rain = 0
KFR1 010757Z 01000KT M01/M08 A3025 RMK A01 T10081080  RH  058%=      5-min Rain = 0
KFR1 010758Z 01000KT M01/M08 A3025 RMK A01 T10081079  RH  059%=      5-min Rain = 0
KFR1 010759Z 33001KT M01/M08 A3025 RMK A01 T10081078  RH  059%=      5-min Rain = 0
KFR1 010800Z 32002KT M01/M08 A3025 RMK A01 T10081078  RH  059%=      5-min Rain = 0
KFR1 010801Z 35001KT M01/M08 A3025 RMK A01 T10081079  RH  059%=      5-min Rain = 0
KFR1 010802Z 35002KT M01/M08 A3025 RMK A01 T10081079  RH  059%=      5-min Rain = 0
KFR1 010803Z 34002KT M01/M08 A3025 RMK A01 T10081079  RH  059%=      5-min Rain = 0
KFR1 010804Z 31002KT M01/M08 A3025 RMK A01 T10091078  RH  059%=      5-min Rain = 0
KFR1 010805Z 31002KT M01/M08 A3025 RMK A01 T10091078  RH  059%=      5-min Rain = 0
KFR1 010806Z 31003KT M01/M08 A3025 RMK A01 T10101077  RH  060%=      5-min Rain = 0
KFR1 010807Z 30003KT M01/M08 A3025 RMK A01 T10101076  RH  061%=      5-min Rain = 0
KFR1 010808Z 31003KT M01/M08 A3025 RMK A01 T10111076  RH  061%=      5-min Rain = 0
KFR1 010809Z 29003KT M01/M08 A3025 RMK A01 T10111076  RH  061%=      5-min Rain = 0
KFR1 010810Z 29003KT M01/M08 A3025 RMK A01 T10111076  RH  061%=      5-min Rain = 0
KFR1 010811Z 29003KT M01/M08 A3025 RMK A01 T10121077  RH  061%=      5-min Rain = 0
KFR1 010812Z 28003KT M01/M08 A3025 RMK A01 T10131078  RH  061%=      5-min Rain = 0
KFR1 010813Z 28003KT M01/M08 A3025 RMK A01 T10141078  RH  062%=      5-min Rain = 0
KFR1 010814Z 29003KT M01/M08 A3025 RMK A01 T10141078  RH  062%=      5-min Rain = 0
KFR1 010815Z 29002KT M01/M08 A3025 RMK A01 T10141078  RH  062%=      5-min Rain = 0
KFR1 010816Z 29002KT M02/M08 A3025 RMK A01 T10151079  RH  062%=      5-min Rain = 0
KFR1 010817Z 29002KT M02/M08 A3025 RMK A01 T10151078  RH  062%=      5-min Rain = 0
KFR1 010818Z 29003KT M02/M08 A3025 RMK A01 T10161078  RH  063%=      5-min Rain = 0
KFR1 010819Z 30002KT M02/M08 A3025 RMK A01 T10161079  RH  063%=      5-min Rain = 0
KFR1 010820Z 30002KT M02/M08 A3025 RMK A01 T10161078  RH  063%=      5-min Rain = 0
KFR1 010821Z 31002KT M02/M08 A3025 RMK A01 T10171078  RH  063%=      5-min Rain = 0
KFR1 010822Z 32003KT M02/M08 A3025 RMK A01 T10171077  RH  063%=      5-min Rain = 0
KFR1 010823Z 30003KT M02/M08 A3025 RMK A01 T10171077  RH  064%=      5-min Rain = 0
KFR1 010824Z 30003KT M02/M08 A3025 RMK A01 T10171077  RH  064%=      5-min Rain = 0
KFR1 010825Z 31002KT M02/M08 A3025 RMK A01 T10171076  RH  064%=      5-min Rain = 0
KFR1 010826Z 31002KT M02/M08 A3025 RMK A01 T10171076  RH  064%=      5-min Rain = 0
KFR1 010827Z 33002KT M02/M08 A3025 RMK A01 T10171076  RH  064%=      5-min Rain = 0
KFR1 010828Z 34001KT M02/M08 A3025 RMK A01 T10171076  RH  064%=      5-min Rain = 0
KFR1 010829Z 32001KT M02/M08 A3025 RMK A01 T10161076  RH  064%=      5-min Rain = 0
KFR1 010830Z 30001KT M02/M08 A3025 RMK A01 T10161076  RH  064%=      5-min Rain = 0
KFR1 010831Z 30002KT M02/M08 A3025 RMK A01 T10161075  RH  064%=      5-min Rain = 0
KFR1 010832Z 29002KT M02/M08 A3025 RMK A01 T10161076  RH  064%=      5-min Rain = 0
KFR1 010833Z 30002KT M02/M08 A3025 RMK A01 T10161076  RH  064%=      5-min Rain = 0
KFR1 010834Z 31002KT M02/M08 A3025 RMK A01 T10171077  RH  064%=      5-min Rain = 0
KFR1 010835Z 32002KT M02/M08 A3025 RMK A01 T10171077  RH  064%=      5-min Rain = 0
KFR1 010836Z 34002KT M02/M08 A3025 RMK A01 T10171076  RH  064%=      5-min Rain = 0
KFR1 010837Z 35002KT M02/M08 A3026 RMK A01 T10171077  RH  064%=      5-min Rain = 0
KFR1 010838Z 34002KT M02/M08 A3026 RMK A01 T10181077  RH  064%=      5-min Rain = 0
KFR1 010839Z 35002KT M02/M08 A3026 RMK A01 T10171077  RH  064%=      5-min Rain = 0
KFR1 010840Z 30002KT M02/M08 A3026 RMK A01 T10181076  RH  064%=      5-min Rain = 0
KFR1 010841Z 30002KT M02/M08 A3026 RMK A01 T10181076  RH  065%=      5-min Rain = 0
KFR1 010842Z 31002KT M02/M08 A3026 RMK A01 T10191076  RH  065%=      5-min Rain = 0
KFR1 010843Z 31001KT M02/M08 A3026 RMK A01 T10191076  RH  065%=      5-min Rain = 0
KFR1 010844Z 32001KT M02/M08 A3026 RMK A01 T10191076  RH  065%=      5-min Rain = 0
KFR1 010845Z 32001KT M02/M08 A3026 RMK A01 T10191076  RH  065%=      5-min Rain = 0
KFR1 010846Z 27000KT M02/M08 A3026 RMK A01 T10191077  RH  065%=      5-min Rain = 0
KFR1 010847Z 26000KT M02/M08 A3026 RMK A01 T10201077  RH  065%=      5-min Rain = 0
KFR1 010848Z 26001KT M02/M08 A3026 RMK A01 T10201077  RH  065%=      5-min Rain = 0
KFR1 010849Z 25001KT M02/M08 A3026 RMK A01 T10211077  RH  065%=      5-min Rain = 0
KFR1 010850Z 25001KT M02/M08 A3026 RMK A01 T10211077  RH  065%=      5-min Rain = 0
KFR1 010851Z 26000KT M02/M08 A3026 RMK A01 T10211077  RH  065%=      5-min Rain = 0
KFR1 010852Z 27001KT M02/M08 A3026 RMK A01 T10211077  RH  065%=      5-min Rain = 0
KFR1 010853Z 28001KT M02/M08 A3026 RMK A01 T10211078  RH  065%=      5-min Rain = 0
KFR1 010854Z 29001KT M02/M08 A3026 RMK A01 T10211078  RH  065%=      5-min Rain = 0
KFR1 010855Z 28002KT M02/M08 A3026 RMK A01 T10211078  RH  065%=      5-min Rain = 0
KFR1 010856Z 28002KT M02/M08 A3026 RMK A01 T10211078  RH  065%=      5-min Rain = 0
KFR1 010857Z 28002KT M02/M08 A3026 RMK A01 T10211079  RH  065%=      5-min Rain = 0
KFR1 010858Z 27002KT M02/M08 A3026 RMK A01 T10211079  RH  065%=      5-min Rain = 0
KFR1 010859Z 27003KT M02/M08 A3027 RMK A01 T10211079  RH  065%=      5-min Rain = 0
KFR1 010900Z 27003KT M02/M08 A3027 RMK A01 T10211079  RH  065%=      5-min Rain = 0
KFR1 010901Z 27002KT M02/M08 A3027 RMK A01 T10221080  RH  065%=      5-min Rain = 0
KFR1 010902Z 26002KT M02/M08 A3027 RMK A01 T10221079  RH  065%=      5-min Rain = 0
KFR1 010903Z 25002KT M02/M08 A3027 RMK A01 T10221079  RH  065%=      5-min Rain = 0
KFR1 010904Z 25002KT M02/M08 A3027 RMK A01 T10221080  RH  065%=      5-min Rain = 0
KFR1 010905Z 25002KT M02/M08 A3027 RMK A01 T10231080  RH  065%=      5-min Rain = 0
KFR1 010906Z 24002KT M02/M08 A3027 RMK A01 T10231081  RH  065%=      5-min Rain = 0
KFR1 010907Z 24002KT M02/M08 A3027 RMK A01 T10241081  RH  065%=      5-min Rain = 0
KFR1 010908Z 24002KT M02/M08 A3027 RMK A01 T10241081  RH  065%=      5-min Rain = 0
KFR1 010909Z 24002KT M03/M08 A3027 RMK A01 T10251081  RH  065%=      5-min Rain = 0
KFR1 010910Z 24001KT M02/M08 A3027 RMK A01 T10241081  RH  065%=      5-min Rain = 0
KFR1 010911Z 25001KT M03/M08 A3027 RMK A01 T10251081  RH  065%=      5-min Rain = 0
KFR1 010912Z 26001KT M03/M08 A3027 RMK A01 T10251081  RH  065%=      5-min Rain = 0
KFR1 010913Z 27002KT M03/M08 A3027 RMK A01 T10261082  RH  065%=      5-min Rain = 0
KFR1 010914Z 28003KT M03/M08 A3027 RMK A01 T10261082  RH  066%=      5-min Rain = 0
KFR1 010915Z 28003KT M03/M08 A3027 RMK A01 T10271082  RH  066%=      5-min Rain = 0
KFR1 010916Z 29002KT M03/M08 A3027 RMK A01 T10271082  RH  066%=      5-min Rain = 0
KFR1 010917Z 29002KT M03/M08 A3027 RMK A01 T10271082  RH  066%=      5-min Rain = 0
KFR1 010918Z 31002KT M03/M08 A3027 RMK A01 T10271083  RH  066%=      5-min Rain = 0
KFR1 010919Z 31003KT M03/M08 A3026 RMK A01 T10281082  RH  066%=      5-min Rain = 0
KFR1 010920Z 31003KT M03/M08 A3026 RMK A01 T10281082  RH  066%=      5-min Rain = 0
KFR1 010921Z 32003KT M03/M08 A3026 RMK A01 T10281081  RH  066%=      5-min Rain = 0
KFR1 010922Z 32004KT M03/M08 A3026 RMK A01 T10271081  RH  067%=      5-min Rain = 0
KFR1 010923Z 32003KT M03/M08 A3026 RMK A01 T10271081  RH  067%=      5-min Rain = 0
KFR1 010924Z 33003KT M03/M08 A3026 RMK A01 T10281082  RH  066%=      5-min Rain = 0
KFR1 010925Z 33004KT M03/M08 A3026 RMK A01 T10281082  RH  066%=      5-min Rain = 0
KFR1 010926Z 33003KT M03/M08 A3026 RMK A01 T10281082  RH  066%=      5-min Rain = 0
KFR1 010927Z 33004KT M03/M08 A3026 RMK A01 T10281083  RH  066%=      5-min Rain = 0
KFR1 010928Z 34004KT M03/M08 A3026 RMK A01 T10291082  RH  067%=      5-min Rain = 0
KFR1 010929Z 34003KT M03/M08 A3026 RMK A01 T10291081  RH  067%=      5-min Rain = 0
KFR1 010930Z 35003KT M03/M08 A3026 RMK A01 T10281079  RH  068%=      5-min Rain = 0
KFR1 010931Z 00003KT M03/M08 A3026 RMK A01 T10271078  RH  068%=      5-min Rain = 0
KFR1 010932Z 36002KT M03/M08 A3026 RMK A01 T10271079  RH  067%=      5-min Rain = 0
KFR1 010933Z 01003KT M03/M08 A3026 RMK A01 T10271079  RH  067%=      5-min Rain = 0
KFR1 010934Z 02002KT M03/M08 A3026 RMK A01 T10271080  RH  067%=      5-min Rain = 0
KFR1 010935Z 02003KT M03/M08 A3026 RMK A01 T10281081  RH  067%=      5-min Rain = 0
KFR1 010936Z 02003KT M03/M08 A3026 RMK A01 T10281082  RH  066%=      5-min Rain = 0
KFR1 010937Z 01003KT M03/M08 A3026 RMK A01 T10291083  RH  066%=      5-min Rain = 0
KFR1 010938Z 01003KT M03/M08 A3026 RMK A01 T10281083  RH  066%=      5-min Rain = 0
KFR1 010939Z 00002KT M03/M08 A3026 RMK A01 T10281084  RH  066%=      5-min Rain = 0
KFR1 010940Z 01003KT M03/M08 A3026 RMK A01 T10281084  RH  065%=      5-min Rain = 0
KFR1 010941Z 00003KT M03/M09 A3026 RMK A01 T10281085  RH  065%=      5-min Rain = 0
KFR1 010942Z 00003KT M03/M09 A3025 RMK A01 T10291085  RH  065%=      5-min Rain = 0
KFR1 010943Z 00003KT M03/M09 A3025 RMK A01 T10291086  RH  065%=      5-min Rain = 0
KFR1 010944Z 00003KT M03/M09 A3025 RMK A01 T10291086  RH  065%=      5-min Rain = 0
KFR1 010945Z 01004KT M03/M09 A3026 RMK A01 T10301087  RH  065%=      5-min Rain = 0
KFR1 010946Z 01004KT M03/M09 A3026 RMK A01 T10311088  RH  065%=      5-min Rain = 0
KFR1 010947Z 01004KT M03/M09 A3026 RMK A01 T10321088  RH  065%=      5-min Rain = 0
KFR1 010948Z 01003KT M03/M09 A3026 RMK A01 T10331087  RH  066%=      5-min Rain = 0
KFR1 010949Z 01003KT M03/M09 A3026 RMK A01 T10331087  RH  066%=      5-min Rain = 0
KFR1 010950Z 01003KT M03/M09 A3026 RMK A01 T10331087  RH  067%=      5-min Rain = 0
KFR1 010951Z 01003KT M03/M09 A3026 RMK A01 T10331087  RH  067%=      5-min Rain = 0
KFR1 010952Z 01003KT M03/M09 A3026 RMK A01 T10331086  RH  066%=      5-min Rain = 0
KFR1 010953Z 01003KT M03/M09 A3025 RMK A01 T10331087  RH  066%=      5-min Rain = 0
KFR1 010954Z 01003KT M03/M09 A3025 RMK A01 T10331087  RH  066%=      5-min Rain = 0
KFR1 010955Z 01003KT M03/M09 A3026 RMK A01 T10331087  RH  066%=      5-min Rain = 0
KFR1 010956Z 01003KT M03/M09 A3026 RMK A01 T10331088  RH  066%=      5-min Rain = 0
KFR1 010957Z 01003KT M03/M09 A3026 RMK A01 T10331088  RH  066%=      5-min Rain = 0
KFR1 010958Z 00003KT M03/M09 A3026 RMK A01 T10331088  RH  065%=      5-min Rain = 0
KFR1 010959Z 00003KT M03/M09 A3026 RMK A01 T10331088  RH  065%=      5-min Rain = 0
KFR1 011000Z 36004KT M03/M09 A3026 RMK A01 T10321089  RH  065%=      5-min Rain = 0
KFR1 011001Z 36003KT M03/M09 A3026 RMK A01 T10321089  RH  065%=      5-min Rain = 0
KFR1 011002Z 00003KT M03/M09 A3026 RMK A01 T10321089  RH  065%=      5-min Rain = 0
KFR1 011003Z 01004KT M03/M09 A3026 RMK A01 T10321089  RH  065%=      5-min Rain = 0
KFR1 011004Z 01003KT M03/M09 A3026 RMK A01 T10321089  RH  065%=      5-min Rain = 0
KFR1 011005Z 01003KT M03/M09 A3026 RMK A01 T10331090  RH  065%=      5-min Rain = 0
KFR1 011006Z 01003KT M03/M09 A3026 RMK A01 T10331089  RH  065%=      5-min Rain = 0
KFR1 011007Z 00003KT M03/M09 A3026 RMK A01 T10331089  RH  065%=      5-min Rain = 0
KFR1 011008Z 00002KT M03/M09 A3026 RMK A01 T10331090  RH  065%=      5-min Rain = 0
KFR1 011009Z 02002KT M03/M09 A3026 RMK A01 T10331090  RH  065%=      5-min Rain = 0
KFR1 011010Z 02002KT M03/M09 A3026 RMK A01 T10331090  RH  065%=      5-min Rain = 0
KFR1 011011Z 02002KT M03/M09 A3026 RMK A01 T10331090  RH  065%=      5-min Rain = 0
KFR1 011012Z 02002KT M03/M09 A3026 RMK A01 T10341090  RH  065%=      5-min Rain = 0
KFR1 011013Z 01002KT M03/M09 A3026 RMK A01 T10341091  RH  065%=      5-min Rain = 0
KFR1 011014Z 01002KT M03/M09 A3026 RMK A01 T10341090  RH  065%=      5-min Rain = 0
KFR1 011015Z 01002KT M03/M09 A3026 RMK A01 T10341090  RH  065%=      5-min Rain = 0
KFR1 011016Z 00002KT M03/M09 A3026 RMK A01 T10341090  RH  065%=      5-min Rain = 0
KFR1 011017Z 35002KT M03/M09 A3026 RMK A01 T10341090  RH  065%=      5-min Rain = 0
KFR1 011018Z 33002KT M03/M09 A3026 RMK A01 T10341090  RH  065%=      5-min Rain = 0
KFR1 011019Z 33002KT M03/M09 A3026 RMK A01 T10341090  RH  065%=      5-min Rain = 0
KFR1 011020Z 33003KT M03/M09 A3026 RMK A01 T10341089  RH  065%=      5-min Rain = 0
KFR1 011021Z 34003KT M03/M09 A3026 RMK A01 T10341089  RH  066%=      5-min Rain = 0
KFR1 011022Z 34003KT M04/M09 A3026 RMK A01 T10351089  RH  066%=      5-min Rain = 0
KFR1 011023Z 34003KT M04/M09 A3026 RMK A01 T10351089  RH  066%=      5-min Rain = 0
KFR1 011024Z 33003KT M04/M09 A3026 RMK A01 T10361089  RH  067%=      5-min Rain = 0
KFR1 011025Z 34003KT M04/M09 A3026 RMK A01 T10361089  RH  067%=      5-min Rain = 0
KFR1 011026Z 35004KT M04/M09 A3026 RMK A01 T10371089  RH  067%=      5-min Rain = 0
KFR1 011027Z 36004KT M04/M09 A3026 RMK A01 T10371088  RH  067%=      5-min Rain = 0
KFR1 011028Z 00004KT M04/M09 A3026 RMK A01 T10361088  RH  068%=      5-min Rain = 0
KFR1 011029Z 00004KT M04/M09 A3026 RMK A01 T10361087  RH  068%=      5-min Rain = 0
KFR1 011030Z 35003KT M04/M09 A3026 RMK A01 T10361087  RH  068%=      5-min Rain = 0
KFR1 011031Z 35004KT M04/M09 A3026 RMK A01 T10361087  RH  068%=      5-min Rain = 0
KFR1 011032Z 35003KT M04/M09 A3026 RMK A01 T10371088  RH  068%=      5-min Rain = 0
KFR1 011033Z 35004KT M04/M09 A3026 RMK A01 T10371088  RH  068%=      5-min Rain = 0
KFR1 011034Z 36004KT M04/M09 A3026 RMK A01 T10381088  RH  068%=      5-min Rain = 0
KFR1 011035Z 35004KT M04/M09 A3026 RMK A01 T10381087  RH  069%=      5-min Rain = 0
KFR1 011036Z 00004KT M04/M09 A3026 RMK A01 T10381087  RH  069%=      5-min Rain = 0
KFR1 011037Z 00003KT M04/M09 A3026 RMK A01 T10381087  RH  069%=      5-min Rain = 0
KFR1 011038Z 01003KT M04/M09 A3025 RMK A01 T10371087  RH  069%=      5-min Rain = 0
KFR1 011039Z 35003KT M04/M09 A3025 RMK A01 T10371087  RH  068%=      5-min Rain = 0
KFR1 011040Z 36003KT M04/M09 A3025 RMK A01 T10381087  RH  069%=      5-min Rain = 0
KFR1 011041Z 36004KT M04/M09 A3025 RMK A01 T10381087  RH  069%=      5-min Rain = 0
KFR1 011042Z 00003KT M04/M09 A3025 RMK A01 T10381087  RH  069%=      5-min Rain = 0
KFR1 011043Z 36004KT M04/M09 A3026 RMK A01 T10391087  RH  069%=      5-min Rain = 0
KFR1 011044Z 36004KT M04/M09 A3026 RMK A01 T10391087  RH  069%=      5-min Rain = 0
KFR1 011045Z 00005KT M04/M09 A3026 RMK A01 T10391087  RH  069%=      5-min Rain = 0
KFR1 011046Z 01004KT M04/M09 A3026 RMK A01 T10391088  RH  069%=      5-min Rain = 0
KFR1 011047Z 01005KT M04/M09 A3025 RMK A01 T10391088  RH  069%=      5-min Rain = 0
KFR1 011048Z 00005KT M04/M09 A3025 RMK A01 T10401088  RH  069%=      5-min Rain = 0
KFR1 011049Z 00006KT M04/M09 A3025 RMK A01 T10401089  RH  069%=      5-min Rain = 0
KFR1 011050Z 00005KT M04/M09 A3025 RMK A01 T10391090  RH  068%=      5-min Rain = 0
KFR1 011051Z 36005KT M04/M09 A3025 RMK A01 T10391090  RH  068%=      5-min Rain = 0
KFR1 011052Z 00006KT M04/M09 A3025 RMK A01 T10401091  RH  068%=      5-min Rain = 0
KFR1 011053Z 01006KT M04/M09 A3026 RMK A01 T10401091  RH  068%=      5-min Rain = 0
KFR1 011054Z 01005KT M04/M09 A3026 RMK A01 T10391091  RH  067%=      5-min Rain = 0
KFR1 011055Z 01005KT M04/M09 A3026 RMK A01 T10391092  RH  067%=      5-min Rain = 0
KFR1 011056Z 00005KT M04/M09 A3026 RMK A01 T10391093  RH  066%=      5-min Rain = 0
KFR1 011057Z 00005KT M04/M09 A3026 RMK A01 T10391093  RH  066%=      5-min Rain = 0
KFR1 011058Z 02005KT M04/M10 A3026 RMK A01 T10401095  RH  065%=      5-min Rain = 0
KFR1 011059Z 01004KT M04/M10 A3027 RMK A01 T10391095  RH  065%=      5-min Rain = 0
KFR1 011100Z 35005KT M04/M10 A3027 RMK A01 T10391096  RH  065%=      5-min Rain = 0
KFR1 011101Z 00004KT M04/M10 A3027 RMK A01 T10401096  RH  065%=      5-min Rain = 0
KFR1 011102Z 01004KT M04/M10 A3027 RMK A01 T10401096  RH  065%=      5-min Rain = 0
KFR1 011103Z 02004KT M04/M10 A3027 RMK A01 T10401096  RH  065%=      5-min Rain = 0
KFR1 011104Z 01003KT M04/M10 A3027 RMK A01 T10401097  RH  065%=      5-min Rain = 0
KFR1 011105Z 01004KT M04/M10 A3027 RMK A01 T10411097  RH  065%=      5-min Rain = 0
KFR1 011106Z 00004KT M04/M10 A3027 RMK A01 T10411097  RH  065%=      5-min Rain = 0
KFR1 011107Z 01004KT M04/M10 A3027 RMK A01 T10411095  RH  066%=      5-min Rain = 0
KFR1 011108Z 00004KT M04/M10 A3028 RMK A01 T10411095  RH  066%=      5-min Rain = 0
KFR1 011109Z 01003KT M04/M10 A3028 RMK A01 T10421095  RH  066%=      5-min Rain = 0
KFR1 011110Z 01003KT M04/M10 A3028 RMK A01 T10431096  RH  066%=      5-min Rain = 0
KFR1 011111Z 00003KT M04/M10 A3028 RMK A01 T10431096  RH  066%=      5-min Rain = 0
KFR1 011112Z 01003KT M04/M10 A3028 RMK A01 T10421096  RH  066%=      5-min Rain = 0
KFR1 011113Z 02003KT M04/M10 A3028 RMK A01 T10421097  RH  066%=      5-min Rain = 0
KFR1 011114Z 02003KT M04/M10 A3028 RMK A01 T10431097  RH  066%=      5-min Rain = 0
KFR1 011115Z 02002KT M04/M10 A3028 RMK A01 T10431097  RH  066%=      5-min Rain = 0
KFR1 011116Z 02002KT M04/M10 A3028 RMK A01 T10431096  RH  066%=      5-min Rain = 0
KFR1 011117Z 03002KT M04/M10 A3028 RMK A01 T10431096  RH  066%=      5-min Rain = 0
KFR1 011118Z 05002KT M04/M10 A3028 RMK A01 T10431096  RH  066%=      5-min Rain = 0
KFR1 011119Z 05003KT M04/M10 A3028 RMK A01 T10421096  RH  066%=      5-min Rain = 0
KFR1 011120Z 05003KT M04/M10 A3028 RMK A01 T10421096  RH  066%=      5-min Rain = 0
KFR1 011121Z 03002KT M04/M10 A3028 RMK A01 T10421096  RH  066%=      5-min Rain = 0
KFR1 011122Z 02001KT M04/M10 A3029 RMK A01 T10421096  RH  066%=      5-min Rain = 0
KFR1 011123Z 01001KT M04/M10 A3029 RMK A01 T10421096  RH  066%=      5-min Rain = 0
KFR1 011124Z 01001KT M04/M10 A3029 RMK A01 T10421096  RH  066%=      5-min Rain = 0
KFR1 011125Z 03000KT M04/M10 A3029 RMK A01 T10421096  RH  066%=      5-min Rain = 0
KFR1 011126Z 18000KT M04/M10 A3029 RMK A01 T10421097  RH  066%=      5-min Rain = 0
KFR1 011127Z 19001KT M04/M10 A3029 RMK A01 T10441098  RH  066%=      5-min Rain = 0
KFR1 011128Z 18001KT M04/M10 A3029 RMK A01 T10441097  RH  066%=      5-min Rain = 0
KFR1 011129Z 20001KT M04/M10 A3029 RMK A01 T10441097  RH  067%=      5-min Rain = 0
KFR1 011130Z 21000KT M05/M10 A3029 RMK A01 T10451097  RH  067%=      5-min Rain = 0
KFR1 011131Z 00000KT M05/M10 A3029 RMK A01 T10451098  RH  067%=      5-min Rain = 0
KFR1 011132Z 29000KT M05/M10 A3029 RMK A01 T10451098  RH  067%=      5-min Rain = 0
KFR1 011133Z 35000KT M05/M10 A3029 RMK A01 T10451097  RH  067%=      5-min Rain = 0
KFR1 011134Z 35001KT M05/M10 A3029 RMK A01 T10451097  RH  067%=      5-min Rain = 0
KFR1 011135Z 34002KT M05/M10 A3029 RMK A01 T10451097  RH  067%=      5-min Rain = 0
KFR1 011136Z 34003KT M05/M10 A3029 RMK A01 T10451097  RH  067%=      5-min Rain = 0
KFR1 011137Z 34003KT M04/M10 A3029 RMK A01 T10441096  RH  067%=      5-min Rain = 0
KFR1 011138Z 34003KT M04/M10 A3029 RMK A01 T10431095  RH  067%=      5-min Rain = 0
KFR1 011139Z 34003KT M04/M10 A3029 RMK A01 T10431096  RH  067%=      5-min Rain = 0
KFR1 011140Z 35003KT M04/M10 A3029 RMK A01 T10431095  RH  067%=      5-min Rain = 0
KFR1 011141Z 00003KT M04/M10 A3029 RMK A01 T10431095  RH  067%=      5-min Rain = 0
KFR1 011142Z 01003KT M04/M09 A3029 RMK A01 T10431094  RH  067%=      5-min Rain = 0
KFR1 011143Z 36002KT M04/M10 A3029 RMK A01 T10441095  RH  067%=      5-min Rain = 0
KFR1 011144Z 35003KT M05/M10 A3029 RMK A01 T10451095  RH  068%=      5-min Rain = 0
KFR1 011145Z 34002KT M05/M09 A3029 RMK A01 T10451094  RH  068%=      5-min Rain = 0
KFR1 011146Z 33003KT M04/M09 A3029 RMK A01 T10441093  RH  069%=      5-min Rain = 0
KFR1 011147Z 33002KT M04/M09 A303 RMK A01 T10441093  RH  069%=      5-min Rain = 0
KFR1 011148Z 32002KT M04/M09 A303 RMK A01 T10431093  RH  068%=      5-min Rain = 0
KFR1 011149Z 32002KT M04/M09 A303 RMK A01 T10431093  RH  068%=      5-min Rain = 0
KFR1 011150Z 32001KT M04/M09 A303 RMK A01 T10431093  RH  068%=      5-min Rain = 0
KFR1 011151Z 32001KT M04/M09 A303 RMK A01 T10431092  RH  068%=      5-min Rain = 0
KFR1 011152Z 32001KT M04/M09 A303 RMK A01 T10431092  RH  068%=      5-min Rain = 0
KFR1 011153Z 32001KT M04/M09 A303 RMK A01 T10431092  RH  069%=      5-min Rain = 0
KFR1 011154Z 32001KT M04/M09 A303 RMK A01 T10431092  RH  069%=      5-min Rain = 0
KFR1 011155Z 13000KT M04/M09 A303 RMK A01 T10441094  RH  068%=      5-min Rain = 0
KFR1 011156Z 25001KT M05/M10 A303 RMK A01 T10461097  RH  068%=      5-min Rain = 0
KFR1 011157Z 25000KT M05/M10 A303 RMK A01 T10471097  RH  068%=      5-min Rain = 0
KFR1 011158Z 29001KT M05/M10 A3031 RMK A01 T10471096  RH  069%=      5-min Rain = 0
KFR1 011159Z 29001KT M05/M10 A3031 RMK A01 T10471096  RH  069%=      5-min Rain = 0
KFR1 011200Z 30001KT M05/M09 A3031 RMK A01 T10471094  RH  069%=      5-min Rain = 0
KFR1 011201Z 29002KT M05/M09 A3031 RMK A01 T10471094  RH  070%=      5-min Rain = 0
KFR1 011202Z 27002KT M05/M09 A3031 RMK A01 T10461093  RH  070%=      5-min Rain = 0
KFR1 011203Z 23002KT M05/M09 A3031 RMK A01 T10461094  RH  069%=      5-min Rain = 0
KFR1 011204Z 21003KT M05/M10 A3031 RMK A01 T10481098  RH  068%=      5-min Rain = 0
KFR1 011205Z 23002KT M05/M10 A3032 RMK A01 T10501100  RH  068%=      5-min Rain = 0
KFR1 011206Z 24002KT M05/M10 A3032 RMK A01 T10511099  RH  069%=      5-min Rain = 0
KFR1 011207Z 24002KT M05/M10 A3032 RMK A01 T10521099  RH  069%=      5-min Rain = 0
KFR1 011208Z 24002KT M05/M10 A3032 RMK A01 T10531100  RH  069%=      5-min Rain = 0
KFR1 011209Z 23002KT M05/M10 A3032 RMK A01 T10531099  RH  070%=      5-min Rain = 0
KFR1 011210Z 23002KT M05/M10 A3032 RMK A01 T10531098  RH  071%=      5-min Rain = 0
KFR1 011211Z 23002KT M05/M10 A3032 RMK A01 T10531098  RH  071%=      5-min Rain = 0
KFR1 011212Z 24002KT M05/M10 A3032 RMK A01 T10541098  RH  071%=      5-min Rain = 0
KFR1 011213Z 25002KT M05/M10 A3032 RMK A01 T10541098  RH  071%=      5-min Rain = 0
KFR1 011214Z 26002KT M05/M10 A3032 RMK A01 T10541098  RH  071%=      5-min Rain = 0
KFR1 011215Z 25002KT M05/M10 A3032 RMK A01 T10531096  RH  072%=      5-min Rain = 0
KFR1 011216Z 26003KT M05/M10 A3032 RMK A01 T10531096  RH  072%=      5-min Rain = 0
KFR1 011217Z 26003KT M05/M10 A3032 RMK A01 T10531097  RH  071%=      5-min Rain = 0
KFR1 011218Z 27003KT M05/M10 A3032 RMK A01 T10531097  RH  071%=      5-min Rain = 0
KFR1 011219Z 28003KT M05/M10 A3032 RMK A01 T10531097  RH  071%=      5-min Rain = 0
KFR1 011220Z 28002KT M05/M10 A3032 RMK A01 T10521095  RH  072%=      5-min Rain = 0
KFR1 011221Z 25002KT M05/M09 A3033 RMK A01 T10511094  RH  072%=      5-min Rain = 0
KFR1 011222Z 24002KT M05/M09 A3033 RMK A01 T10501094  RH  071%=      5-min Rain = 0
KFR1 011223Z 24002KT M05/M10 A3033 RMK A01 T10501095  RH  071%=      5-min Rain = 0
KFR1 011224Z 23002KT M05/M10 A3033 RMK A01 T10511097  RH  070%=      5-min Rain = 0
KFR1 011225Z 21002KT M05/M10 A3033 RMK A01 T10531100  RH  070%=      5-min Rain = 0
KFR1 011226Z 23002KT M06/M10 A3033 RMK A01 T10561101  RH  070%=      5-min Rain = 0
KFR1 011227Z 23003KT M06/M10 A3033 RMK A01 T10571101  RH  071%=      5-min Rain = 0
KFR1 011228Z 22003KT M06/M10 A3033 RMK A01 T10571100  RH  072%=      5-min Rain = 0
KFR1 011229Z 22003KT M06/M10 A3033 RMK A01 T10581100  RH  072%=      5-min Rain = 0
KFR1 011230Z 22003KT M06/M10 A3033 RMK A01 T10581100  RH  073%=      5-min Rain = 0
KFR1 011231Z 23003KT M06/M10 A3033 RMK A01 T10581099  RH  073%=      5-min Rain = 0
KFR1 011232Z 23003KT M06/M10 A3033 RMK A01 T10571098  RH  073%=      5-min Rain = 0
KFR1 011233Z 22003KT M06/M10 A3033 RMK A01 T10571098  RH  073%=      5-min Rain = 0
KFR1 011234Z 22003KT M06/M10 A3033 RMK A01 T10561098  RH  072%=      5-min Rain = 0
KFR1 011235Z 22003KT M06/M10 A3033 RMK A01 T10561098  RH  072%=      5-min Rain = 0
KFR1 011236Z 22003KT M06/M10 A3033 RMK A01 T10561099  RH  072%=      5-min Rain = 0
KFR1 011237Z 22003KT M06/M10 A3033 RMK A01 T10561099  RH  072%=      5-min Rain = 0
KFR1 011238Z 22004KT M06/M10 A3033 RMK A01 T10561099  RH  072%=      5-min Rain = 0
KFR1 011239Z 22003KT M06/M10 A3033 RMK A01 T10561100  RH  071%=      5-min Rain = 0
KFR1 011240Z 23004KT M06/M10 A3033 RMK A01 T10561100  RH  071%=      5-min Rain = 0
KFR1 011241Z 25003KT M06/M10 A3033 RMK A01 T10561101  RH  071%=      5-min Rain = 0
KFR1 011242Z 25003KT M06/M10 A3033 RMK A01 T10561101  RH  070%=      5-min Rain = 0
KFR1 011243Z 24003KT M06/M10 A3033 RMK A01 T10551102  RH  070%=      5-min Rain = 0
KFR1 011244Z 24004KT M06/M10 A3033 RMK A01 T10551102  RH  070%=      5-min Rain = 0
KFR1 011245Z 25003KT M06/M10 A3034 RMK A01 T10561102  RH  070%=      5-min Rain = 0
KFR1 011246Z 25003KT M06/M10 A3034 RMK A01 T10561102  RH  070%=      5-min Rain = 0
KFR1 011247Z 26003KT M06/M10 A3034 RMK A01 T10561103  RH  070%=      5-min Rain = 0
KFR1 011248Z 26003KT M05/M10 A3034 RMK A01 T10541103  RH  069%=      5-min Rain = 0
KFR1 011249Z 27003KT M05/M10 A3034 RMK A01 T10531104  RH  067%=      5-min Rain = 0
KFR1 011250Z 27003KT M05/M10 A3034 RMK A01 T10511104  RH  066%=      5-min Rain = 0
KFR1 011251Z 27004KT M05/M11 A3034 RMK A01 T10511105  RH  066%=      5-min Rain = 0
KFR1 011252Z 28003KT M05/M11 A3034 RMK A01 T10501105  RH  065%=      5-min Rain = 0
KFR1 011253Z 28004KT M05/M11 A3034 RMK A01 T10501106  RH  065%=      5-min Rain = 0
KFR1 011254Z 27004KT M05/M11 A3034 RMK A01 T10491106  RH  065%=      5-min Rain = 0
KFR1 011255Z 27004KT M05/M11 A3034 RMK A01 T10491106  RH  065%=      5-min Rain = 0
KFR1 011256Z 28004KT M05/M11 A3034 RMK A01 T10491105  RH  065%=      5-min Rain = 0
KFR1 011257Z 28004KT M05/M11 A3034 RMK A01 T10491105  RH  065%=      5-min Rain = 0
KFR1 011258Z 27004KT M05/M10 A3034 RMK A01 T10491104  RH  065%=      5-min Rain = 0
KFR1 011259Z 27004KT M05/M10 A3034 RMK A01 T10491104  RH  066%=      5-min Rain = 0
KFR1 011300Z 27004KT M05/M10 A3034 RMK A01 T10501104  RH  066%=      5-min Rain = 0
KFR1 011301Z 27004KT M05/M10 A3034 RMK A01 T10501103  RH  066%=      5-min Rain = 0
KFR1 011302Z 27003KT M05/M10 A3034 RMK A01 T10501103  RH  067%=      5-min Rain = 0
KFR1 011303Z 28004KT M05/M10 A3034 RMK A01 T10511103  RH  067%=      5-min Rain = 0
KFR1 011304Z 28004KT M05/M10 A3034 RMK A01 T10511101  RH  068%=      5-min Rain = 0
KFR1 011305Z 28004KT M05/M10 A3034 RMK A01 T10511100  RH  068%=      5-min Rain = 0
KFR1 011306Z 27003KT M05/M10 A3034 RMK A01 T10511100  RH  068%=      5-min Rain = 0
KFR1 011307Z 27003KT M05/M10 A3034 RMK A01 T10501100  RH  068%=      5-min Rain = 0
KFR1 011308Z 27003KT M05/M10 A3034 RMK A01 T10501099  RH  069%=      5-min Rain = 0
KFR1 011309Z 28003KT M05/M10 A3034 RMK A01 T10501097  RH  070%=      5-min Rain = 0
KFR1 011310Z 28003KT M05/M10 A3034 RMK A01 T10501095  RH  070%=      5-min Rain = 0
KFR1 011311Z 28003KT M05/M09 A3034 RMK A01 T10491093  RH  071%=      5-min Rain = 0
KFR1 011312Z 28003KT M05/M09 A3034 RMK A01 T10491092  RH  072%=      5-min Rain = 0
KFR1 011313Z 28003KT M05/M09 A3034 RMK A01 T10491092  RH  072%=      5-min Rain = 0
KFR1 011314Z 28003KT M05/M09 A3034 RMK A01 T10481091  RH  072%=      5-min Rain = 0
KFR1 011315Z 29003KT M05/M09 A3034 RMK A01 T10491091  RH  072%=      5-min Rain = 0
KFR1 011316Z 29003KT M05/M09 A3034 RMK A01 T10491091  RH  072%=      5-min Rain = 0
KFR1 011317Z 29003KT M05/M09 A3034 RMK A01 T10491091  RH  073%=      5-min Rain = 0
KFR1 011318Z 30003KT M05/M09 A3034 RMK A01 T10491090  RH  073%=      5-min Rain = 0
KFR1 011319Z 31003KT M05/M09 A3034 RMK A01 T10491089  RH  074%=      5-min Rain = 0
KFR1 011320Z 30003KT M05/M09 A3034 RMK A01 T10491089  RH  074%=      5-min Rain = 0
KFR1 011321Z 31003KT M05/M09 A3034 RMK A01 T10491088  RH  074%=      5-min Rain = 0
KFR1 011322Z 30003KT M05/M09 A3034 RMK A01 T10491088  RH  074%=      5-min Rain = 0
KFR1 011323Z 31003KT M05/M09 A3034 RMK A01 T10491088  RH  074%=      5-min Rain = 0
KFR1 011324Z 31003KT M05/M09 A3034 RMK A01 T10491088  RH  074%=      5-min Rain = 0
KFR1 011325Z 31003KT M05/M09 A3034 RMK A01 T10491087  RH  074%=      5-min Rain = 0
KFR1 011326Z 31003KT M05/M09 A3034 RMK A01 T10481088  RH  074%=      5-min Rain = 0
KFR1 011327Z 32003KT M05/M09 A3034 RMK A01 T10481088  RH  073%=      5-min Rain = 0
KFR1 011328Z 32003KT M05/M09 A3034 RMK A01 T10481089  RH  073%=      5-min Rain = 0
KFR1 011329Z 32003KT M05/M09 A3034 RMK A01 T10481089  RH  073%=      5-min Rain = 0
KFR1 011330Z 33003KT M05/M09 A3034 RMK A01 T10481089  RH  073%=      5-min Rain = 0
KFR1 011331Z 34004KT M05/M09 A3034 RMK A01 T10471090  RH  072%=      5-min Rain = 0
KFR1 011332Z 33004KT M05/M09 A3034 RMK A01 T10471092  RH  071%=      5-min Rain = 0
KFR1 011333Z 34004KT M05/M09 A3034 RMK A01 T10471093  RH  070%=      5-min Rain = 0
KFR1 011334Z 34003KT M05/M09 A3034 RMK A01 T10461093  RH  070%=      5-min Rain = 0
KFR1 011335Z 34003KT M05/M09 A3034 RMK A01 T10461093  RH  070%=      5-min Rain = 0
KFR1 011336Z 34004KT M05/M09 A3034 RMK A01 T10461093  RH  070%=      5-min Rain = 0
KFR1 011337Z 33004KT M05/M09 A3034 RMK A01 T10461094  RH  069%=      5-min Rain = 0
KFR1 011338Z 33004KT M05/M10 A3034 RMK A01 T10461095  RH  069%=      5-min Rain = 0
KFR1 011339Z 33004KT M05/M10 A3034 RMK A01 T10461096  RH  068%=      5-min Rain = 0
KFR1 011340Z 34004KT M05/M10 A3034 RMK A01 T10461096  RH  068%=      5-min Rain = 0
KFR1 011341Z 34004KT M05/M10 A3035 RMK A01 T10471096  RH  068%=      5-min Rain = 0
KFR1 011342Z 35003KT M05/M10 A3035 RMK A01 T10461096  RH  068%=      5-min Rain = 0
KFR1 011343Z 34004KT M05/M10 A3035 RMK A01 T10461096  RH  068%=      5-min Rain = 0
KFR1 011344Z 35004KT M05/M10 A3035 RMK A01 T10451096  RH  068%=      5-min Rain = 0
KFR1 011345Z 35003KT M05/M10 A3035 RMK A01 T10451095  RH  068%=      5-min Rain = 0
KFR1 011346Z 34003KT M05/M10 A3034 RMK A01 T10451097  RH  067%=      5-min Rain = 0
KFR1 011347Z 33004KT M05/M10 A3034 RMK A01 T10451098  RH  066%=      5-min Rain = 0
KFR1 011348Z 33004KT M05/M10 A3034 RMK A01 T10451099  RH  066%=      5-min Rain = 0
KFR1 011349Z 33004KT M04/M10 A3034 RMK A01 T10441099  RH  066%=      5-min Rain = 0
KFR1 011350Z 33004KT M04/M10 A3034 RMK A01 T10441099  RH  065%=      5-min Rain = 0
KFR1 011351Z 33004KT M04/M10 A3035 RMK A01 T10441100  RH  065%=      5-min Rain = 0
KFR1 011352Z 33004KT M04/M10 A3035 RMK A01 T10441100  RH  065%=      5-min Rain = 0
KFR1 011353Z 34004KT M04/M10 A3035 RMK A01 T10441101  RH  065%=      5-min Rain = 0
KFR1 011354Z 34004KT M05/M10 A3035 RMK A01 T10451102  RH  064%=      5-min Rain = 0
KFR1 011355Z 33004KT M04/M10 A3035 RMK A01 T10441102  RH  064%=      5-min Rain = 0
KFR1 011356Z 33004KT M04/M10 A3035 RMK A01 T10441102  RH  064%=      5-min Rain = 0
KFR1 011357Z 33004KT M04/M10 A3035 RMK A01 T10441102  RH  064%=      5-min Rain = 0
KFR1 011358Z 33005KT M04/M10 A3035 RMK A01 T10441101  RH  064%=      5-min Rain = 0
KFR1 011359Z 33004KT M04/M10 A3035 RMK A01 T10441100  RH  065%=      5-min Rain = 0
KFR1 011400Z 33004KT M04/M10 A3035 RMK A01 T10441099  RH  065%=      5-min Rain = 0
KFR1 011401Z 33003KT M04/M10 A3035 RMK A01 T10441099  RH  066%=      5-min Rain = 0
KFR1 011402Z 33003KT M04/M10 A3035 RMK A01 T10441098  RH  066%=      5-min Rain = 0
KFR1 011403Z 33003KT M04/M10 A3035 RMK A01 T10431097  RH  066%=      5-min Rain = 0
KFR1 011404Z 33003KT M04/M10 A3035 RMK A01 T10431096  RH  066%=      5-min Rain = 0
KFR1 011405Z 33003KT M04/M10 A3035 RMK A01 T10431096  RH  067%=      5-min Rain = 0
KFR1 011406Z 33003KT M04/M10 A3035 RMK A01 T10431095  RH  067%=      5-min Rain = 0
KFR1 011407Z 33003KT M04/M10 A3036 RMK A01 T10421095  RH  067%=      5-min Rain = 0
KFR1 011408Z 34002KT M04/M09 A3036 RMK A01 T10421094  RH  067%=      5-min Rain = 0
KFR1 011409Z 00001KT M04/M09 A3036 RMK A01 T10411092  RH  068%=      5-min Rain = 0
KFR1 011410Z 00001KT M04/M09 A3036 RMK A01 T10411092  RH  068%=      5-min Rain = 0
KFR1 011411Z 35001KT M04/M09 A3036 RMK A01 T10401093  RH  067%=      5-min Rain = 0
KFR1 011412Z 32001KT M04/M09 A3036 RMK A01 T10401094  RH  066%=      5-min Rain = 0
KFR1 011413Z 31002KT M04/M09 A3036 RMK A01 T10401093  RH  067%=      5-min Rain = 0
KFR1 011414Z 32002KT M04/M09 A3036 RMK A01 T10391093  RH  066%=      5-min Rain = 0
KFR1 011415Z 31002KT M04/M09 A3036 RMK A01 T10381093  RH  066%=      5-min Rain = 0
KFR1 011416Z 28002KT M04/M09 A3036 RMK A01 T10381093  RH  066%=      5-min Rain = 0
KFR1 011417Z 27003KT M04/M09 A3036 RMK A01 T10381092  RH  066%=      5-min Rain = 0
KFR1 011418Z 27002KT M04/M09 A3036 RMK A01 T10391091  RH  067%=      5-min Rain = 0
KFR1 011419Z 27002KT M04/M09 A3036 RMK A01 T10391091  RH  067%=      5-min Rain = 0
KFR1 011420Z 28002KT M04/M09 A3036 RMK A01 T10401091  RH  067%=      5-min Rain = 0
KFR1 011421Z 27002KT M04/M09 A3036 RMK A01 T10401091  RH  067%=      5-min Rain = 0
KFR1 011422Z 27002KT M04/M09 A3036 RMK A01 T10401091  RH  068%=      5-min Rain = 0
KFR1 011423Z 27002KT M04/M09 A3036 RMK A01 T10401090  RH  068%=      5-min Rain = 0
KFR1 011424Z 27002KT M04/M09 A3036 RMK A01 T10401090  RH  068%=      5-min Rain = 0
KFR1 011425Z 27001KT M04/M09 A3036 RMK A01 T10401089  RH  069%=      5-min Rain = 0
KFR1 011426Z 27001KT M04/M09 A3036 RMK A01 T10401090  RH  068%=      5-min Rain = 0
KFR1 011427Z 28002KT M04/M09 A3036 RMK A01 T10391090  RH  068%=      5-min Rain = 0
KFR1 011428Z 27002KT M04/M09 A3036 RMK A01 T10381090  RH  067%=      5-min Rain = 0
KFR1 011429Z 29002KT M04/M09 A3036 RMK A01 T10371091  RH  066%=      5-min Rain = 0
KFR1 011430Z 30001KT M04/M09 A3036 RMK A01 T10361091  RH  066%=      5-min Rain = 0
KFR1 011431Z 31001KT M04/M09 A3036 RMK A01 T10361090  RH  066%=      5-min Rain = 0
KFR1 011432Z 32002KT M03/M09 A3036 RMK A01 T10341089  RH  066%=      5-min Rain = 0
KFR1 011433Z 33002KT M03/M09 A3037 RMK A01 T10331088  RH  066%=      5-min Rain = 0
KFR1 011434Z 32002KT M03/M09 A3037 RMK A01 T10331088  RH  065%=      5-min Rain = 0
KFR1 011435Z 33002KT M03/M09 A3037 RMK A01 T10321089  RH  065%=      5-min Rain = 0
KFR1 011436Z 32002KT M03/M09 A3037 RMK A01 T10321090  RH  064%=      5-min Rain = 0
KFR1 011437Z 31001KT M03/M09 A3037 RMK A01 T10311091  RH  064%=      5-min Rain = 0
KFR1 011438Z 30001KT M03/M09 A3037 RMK A01 T10301089  RH  064%=      5-min Rain = 0
KFR1 011439Z 32002KT M03/M09 A3037 RMK A01 T10281087  RH  064%=      5-min Rain = 0
KFR1 011440Z 33003KT M03/M09 A3037 RMK A01 T10281088  RH  063%=      5-min Rain = 0
KFR1 011441Z 33002KT M03/M09 A3037 RMK A01 T10271089  RH  063%=      5-min Rain = 0
KFR1 011442Z 31002KT M03/M09 A3037 RMK A01 T10271087  RH  063%=      5-min Rain = 0
KFR1 011443Z 35002KT M03/M09 A3037 RMK A01 T10261087  RH  063%=      5-min Rain = 0
KFR1 011444Z 33001KT M03/M09 A3037 RMK A01 T10251087  RH  062%=      5-min Rain = 0
KFR1 011445Z 33002KT M02/M09 A3037 RMK A01 T10241088  RH  061%=      5-min Rain = 0
KFR1 011446Z 33002KT M03/M09 A3037 RMK A01 T10251090  RH  061%=      5-min Rain = 0
KFR1 011447Z 32002KT M03/M09 A3037 RMK A01 T10251091  RH  061%=      5-min Rain = 0
KFR1 011448Z 32002KT M03/M09 A3037 RMK A01 T10261091  RH  061%=      5-min Rain = 0
KFR1 011449Z 33003KT M03/M09 A3037 RMK A01 T10261090  RH  061%=      5-min Rain = 0
KFR1 011450Z 34003KT M03/M09 A3037 RMK A01 T10271092  RH  061%=      5-min Rain = 0
KFR1 011451Z 35003KT M03/M09 A3038 RMK A01 T10271093  RH  061%=      5-min Rain = 0
KFR1 011452Z 01003KT M03/M09 A3038 RMK A01 T10271093  RH  061%=      5-min Rain = 0
KFR1 011453Z 01004KT M03/M09 A3038 RMK A01 T10261092  RH  061%=      5-min Rain = 0
KFR1 011454Z 36004KT M03/M09 A3038 RMK A01 T10261092  RH  060%=      5-min Rain = 0
KFR1 011455Z 36002KT M03/M09 A3038 RMK A01 T10261093  RH  060%=      5-min Rain = 0
KFR1 011456Z 03001KT M03/M09 A3038 RMK A01 T10261093  RH  060%=      5-min Rain = 0
KFR1 011457Z 35001KT M03/M09 A3038 RMK A01 T10261092  RH  060%=      5-min Rain = 0
KFR1 011458Z 31001KT M02/M09 A3038 RMK A01 T10241090  RH  060%=      5-min Rain = 0
KFR1 011459Z 31001KT M02/M09 A3038 RMK A01 T10211088  RH  060%=      5-min Rain = 0
KFR1 011500Z 00002KT M02/M09 A3038 RMK A01 T10201088  RH  060%=      5-min Rain = 0
KFR1 011501Z 32004KT M02/M09 A3038 RMK A01 T10171086  RH  059%=      5-min Rain = 0
KFR1 011502Z 33003KT M02/M09 A3038 RMK A01 T10151089  RH  057%=      5-min Rain = 0
KFR1 011503Z 32002KT M01/M09 A3038 RMK A01 T10141088  RH  057%=      5-min Rain = 0
KFR1 011504Z 34002KT M01/M09 A3038 RMK A01 T10131090  RH  056%=      5-min Rain = 0
KFR1 011505Z 03002KT M01/M09 A3038 RMK A01 T10131090  RH  056%=      5-min Rain = 0
KFR1 011506Z 01002KT M01/M09 A3038 RMK A01 T10131090  RH  055%=      5-min Rain = 0
KFR1 011507Z 29001KT M01/M09 A3038 RMK A01 T10121091  RH  055%=      5-min Rain = 0
KFR1 011508Z 32001KT M01/M09 A3038 RMK A01 T10111090  RH  055%=      5-min Rain = 0
KFR1 011509Z 30001KT M01/M09 A3038 RMK A01 T10101090  RH  055%=      5-min Rain = 0
KFR1 011510Z 31002KT M01/M09 A3038 RMK A01 T10101091  RH  054%=      5-min Rain = 0
KFR1 011511Z 30003KT M01/M09 A3039 RMK A01 T10101091  RH  054%=      5-min Rain = 0
KFR1 011512Z 33004KT M01/M09 A3039 RMK A01 T10101092  RH  054%=      5-min Rain = 0
KFR1 011513Z 33003KT M01/M09 A3039 RMK A01 T10111093  RH  054%=      5-min Rain = 0
KFR1 011514Z 31003KT M01/M09 A3039 RMK A01 T10101091  RH  054%=      5-min Rain = 0
KFR1 011515Z 35003KT M01/M09 A3039 RMK A01 T10091091  RH  054%=      5-min Rain = 0
KFR1 011516Z 36000KT M01/M09 A3039 RMK A01 T10081089  RH  054%=      5-min Rain = 0
KFR1 011517Z 35001KT M01/M09 A3039 RMK A01 T10061088  RH  054%=      5-min Rain = 0
KFR1 011518Z 32002KT M01/M09 A3039 RMK A01 T10051090  RH  053%=      5-min Rain = 0
KFR1 011519Z 28002KT M01/M09 A3039 RMK A01 T10051092  RH  052%=      5-min Rain = 0
KFR1 011520Z 29001KT M01/M09 A3039 RMK A01 T10051092  RH  052%=      5-min Rain = 0
KFR1 011521Z 26001KT M00/M09 A3039 RMK A01 T10041091  RH  052%=      5-min Rain = 0
KFR1 011522Z 26001KT M00/M09 A3039 RMK A01 T10031091  RH  051%=      5-min Rain = 0
KFR1 011523Z 27000KT M00/M09 A3039 RMK A01 T10021091  RH  051%=      5-min Rain = 0
KFR1 011524Z 31000KT M00/M09 A3039 RMK A01 T10021092  RH  051%=      5-min Rain = 0
KFR1 011525Z 27001KT 00/09 A3039 RMK A01 T00000-90  RH  050%=      5-min Rain = 0
KFR1 011526Z 28002KT 00/M09 A3039 RMK A01 T00021089  RH  050%=      5-min Rain = 0
KFR1 011527Z 30002KT 00/M09 A3039 RMK A01 T00041089  RH  050%=      5-min Rain = 0
KFR1 011528Z 31003KT 00/M09 A3039 RMK A01 T00041089  RH  050%=      5-min Rain = 0
KFR1 011529Z 30002KT 01/M09 A3039 RMK A01 T00051090  RH  049%=      5-min Rain = 0
KFR1 011530Z 32002KT 01/M09 A3039 RMK A01 T00051090  RH  049%=      5-min Rain = 0
KFR1 011531Z 31002KT 01/M09 A3039 RMK A01 T00051090  RH  049%=      5-min Rain = 0
KFR1 011532Z 30002KT 01/M09 A3039 RMK A01 T00061089  RH  049%=      5-min Rain = 0
KFR1 011533Z 26002KT 01/M09 A3039 RMK A01 T00071088  RH  049%=      5-min Rain = 0
KFR1 011534Z 26002KT 01/M09 A3039 RMK A01 T00081088  RH  049%=      5-min Rain = 0
KFR1 011535Z 25003KT 01/M09 A3039 RMK A01 T00091087  RH  049%=      5-min Rain = 0
KFR1 011536Z 23003KT 01/M09 A3039 RMK A01 T00081089  RH  048%=      5-min Rain = 0
KFR1 011537Z 26002KT 01/M09 A3039 RMK A01 T00061089  RH  049%=      5-min Rain = 0
KFR1 011538Z 25002KT 01/M09 A3039 RMK A01 T00051088  RH  049%=      5-min Rain = 0
KFR1 011539Z 27001KT 01/M09 A3039 RMK A01 T00051088  RH  050%=      5-min Rain = 0
KFR1 011540Z 29001KT 01/M09 A304 RMK A01 T00071086  RH  050%=      5-min Rain = 0
KFR1 011541Z 26002KT 01/M09 A304 RMK A01 T00091087  RH  049%=      5-min Rain = 0
KFR1 011542Z 27002KT 01/M09 A304 RMK A01 T00091087  RH  049%=      5-min Rain = 0
KFR1 011543Z 26000KT 01/M09 A304 RMK A01 T00111085  RH  049%=      5-min Rain = 0
KFR1 011544Z 28001KT 01/M08 A304 RMK A01 T00131084  RH  048%=      5-min Rain = 0
KFR1 011545Z 26002KT 02/M08 A304 RMK A01 T00151084  RH  048%=      5-min Rain = 0
KFR1 011546Z 26001KT 02/M09 A304 RMK A01 T00151085  RH  047%=      5-min Rain = 0
KFR1 011547Z 27002KT 02/M08 A304 RMK A01 T00151084  RH  048%=      5-min Rain = 0
KFR1 011548Z 27002KT 01/M09 A304 RMK A01 T00141085  RH  048%=      5-min Rain = 0
KFR1 011549Z 25002KT 01/M08 A304 RMK A01 T00141084  RH  048%=      5-min Rain = 0
KFR1 011550Z 25002KT 02/M09 A304 RMK A01 T00151085  RH  047%=      5-min Rain = 0
KFR1 011551Z 24003KT 02/M09 A304 RMK A01 T00151085  RH  047%=      5-min Rain = 0
KFR1 011552Z 24003KT 02/M08 A304 RMK A01 T00151084  RH  047%=      5-min Rain = 0
KFR1 011553Z 25003KT 02/M08 A304 RMK A01 T00161084  RH  047%=      5-min Rain = 0
KFR1 011554Z 23003KT 02/M08 A304 RMK A01 T00171083  RH  047%=      5-min Rain = 0
KFR1 011555Z 23002KT 02/M08 A304 RMK A01 T00181084  RH  047%=      5-min Rain = 0
KFR1 011556Z 26003KT 02/M08 A304 RMK A01 T00181084  RH  047%=      5-min Rain = 0
KFR1 011557Z 24003KT 02/M08 A304 RMK A01 T00191084  RH  046%=      5-min Rain = 0
KFR1 011558Z 24003KT 02/M08 A304 RMK A01 T00201084  RH  046%=      5-min Rain = 0
KFR1 011559Z 25003KT 02/M08 A304 RMK A01 T00201084  RH  046%=      5-min Rain = 0
KFR1 011600Z 26003KT 02/M08 A304 RMK A01 T00211083  RH  046%=      5-min Rain = 0
KFR1 011601Z 25003KT 02/M08 A304 RMK A01 T00221083  RH  046%=      5-min Rain = 0
KFR1 011602Z 27003KT 02/M08 A304 RMK A01 T00221082  RH  046%=      5-min Rain = 0
KFR1 011603Z 26003KT 02/M08 A304 RMK A01 T00231081  RH  046%=      5-min Rain = 0
KFR1 011604Z 26002KT 02/M08 A304 RMK A01 T00241082  RH  045%=      5-min Rain = 0
KFR1 011605Z 27002KT 03/M08 A304 RMK A01 T00261081  RH  045%=      5-min Rain = 0
KFR1 011606Z 29002KT 03/M08 A304 RMK A01 T00281081  RH  045%=      5-min Rain = 0
KFR1 011607Z 27002KT 03/M08 A304 RMK A01 T00301079  RH  045%=      5-min Rain = 0
KFR1 011608Z 28002KT 03/M08 A304 RMK A01 T00311081  RH  044%=      5-min Rain = 0
KFR1 011609Z 28003KT 03/M08 A304 RMK A01 T00321080  RH  044%=      5-min Rain = 0
KFR1 011610Z 26002KT 03/M08 A304 RMK A01 T00321082  RH  043%=      5-min Rain = 0
KFR1 011611Z 28002KT 03/M08 A304 RMK A01 T00321080  RH  044%=      5-min Rain = 0
KFR1 011612Z 26002KT 03/M08 A304 RMK A01 T00321080  RH  044%=      5-min Rain = 0
KFR1 011613Z 24002KT 03/M08 A304 RMK A01 T00321080  RH  043%=      5-min Rain = 0
KFR1 011614Z 26002KT 03/M08 A304 RMK A01 T00321081  RH  043%=      5-min Rain = 0
KFR1 011615Z 28002KT 03/M08 A304 RMK A01 T00321080  RH  044%=      5-min Rain = 0
KFR1 011616Z 26002KT 03/M08 A304 RMK A01 T00321080  RH  044%=      5-min Rain = 0
KFR1 011617Z 26001KT 03/M08 A304 RMK A01 T00331076  RH  045%=      5-min Rain = 0
KFR1 011618Z 26002KT 04/M08 A304 RMK A01 T00351079  RH  043%=      5-min Rain = 0
KFR1 011619Z 25003KT 04/M08 A304 RMK A01 T00351082  RH  042%=      5-min Rain = 0
KFR1 011620Z 27003KT 03/M08 A304 RMK A01 T00341082  RH  042%=      5-min Rain = 0
KFR1 011621Z 26002KT 03/M08 A304 RMK A01 T00331081  RH  043%=      5-min Rain = 0
KFR1 011622Z 25001KT 03/M08 A304 RMK A01 T00341081  RH  042%=      5-min Rain = 0
KFR1 011623Z 26002KT 04/M08 A304 RMK A01 T00361079  RH  043%=      5-min Rain = 0
KFR1 011624Z 24002KT 04/M08 A304 RMK A01 T00361079  RH  043%=      5-min Rain = 0
KFR1 011625Z 25003KT 04/M08 A3041 RMK A01 T00361078  RH  043%=      5-min Rain = 0
KFR1 011626Z 26002KT 04/M08 A3041 RMK A01 T00371081  RH  042%=      5-min Rain = 0
KFR1 011627Z 24002KT 04/M08 A3041 RMK A01 T00381079  RH  042%=      5-min Rain = 0
KFR1 011628Z 27001KT 04/M08 A3041 RMK A01 T00401080  RH  041%=      5-min Rain = 0
KFR1 011629Z 28003KT 04/M08 A3041 RMK A01 T00431079  RH  041%=      5-min Rain = 0
KFR1 011630Z 27002KT 04/M08 A3041 RMK A01 T00431082  RH  040%=      5-min Rain = 0
KFR1 011631Z 26003KT 04/M08 A3041 RMK A01 T00421081  RH  040%=      5-min Rain = 0
KFR1 011632Z 26003KT 04/M08 A3041 RMK A01 T00421081  RH  041%=      5-min Rain = 0
KFR1 011633Z 26003KT 04/M08 A3041 RMK A01 T00411081  RH  040%=      5-min Rain = 0
KFR1 011634Z 26003KT 04/M08 A3041 RMK A01 T00421081  RH  040%=      5-min Rain = 0
KFR1 011635Z 27002KT 04/M08 A3041 RMK A01 T00421081  RH  040%=      5-min Rain = 0
KFR1 011636Z 26002KT 05/M08 A3041 RMK A01 T00451076  RH  041%=      5-min Rain = 0
KFR1 011637Z 26003KT 05/M08 A3041 RMK A01 T00481081  RH  039%=      5-min Rain = 0
KFR1 011638Z 27002KT 05/M08 A3041 RMK A01 T00481081  RH  039%=      5-min Rain = 0
KFR1 011639Z 27003KT 05/M08 A3041 RMK A01 T00471079  RH  039%=      5-min Rain = 0
KFR1 011640Z 27003KT 05/M08 A3041 RMK A01 T00481079  RH  039%=      5-min Rain = 0
KFR1 011641Z 28003KT 05/M08 A3041 RMK A01 T00491080  RH  039%=      5-min Rain = 0
KFR1 011642Z 28004KT 05/M08 A3041 RMK A01 T00501081  RH  038%=      5-min Rain = 0
KFR1 011643Z 28004KT 05/M08 A3041 RMK A01 T00491083  RH  038%=      5-min Rain = 0
KFR1 011644Z 26003KT 05/M08 A3041 RMK A01 T00491083  RH  038%=      5-min Rain = 0
KFR1 011645Z 27003KT 05/M08 A3041 RMK A01 T00501082  RH  038%=      5-min Rain = 0
KFR1 011646Z 27003KT 05/M08 A3041 RMK A01 T00501081  RH  038%=      5-min Rain = 0
KFR1 011647Z 30003KT 05/M08 A3041 RMK A01 T00511079  RH  039%=      5-min Rain = 0
KFR1 011648Z 31002KT 05/M08 A3041 RMK A01 T00531082  RH  037%=      5-min Rain = 0
KFR1 011649Z 27001KT 05/M08 A3041 RMK A01 T00521084  RH  037%=      5-min Rain = 0
KFR1 011650Z 26003KT 05/M08 A3041 RMK A01 T00531084  RH  037%=      5-min Rain = 0
KFR1 011651Z 28002KT 06/M08 A3041 RMK A01 T00561080  RH  037%=      5-min Rain = 0
KFR1 011652Z 26003KT 06/M08 A3041 RMK A01 T00591081  RH  036%=      5-min Rain = 0
KFR1 011653Z 28003KT 06/M09 A3041 RMK A01 T00581085  RH  035%=      5-min Rain = 0
KFR1 011654Z 29001KT 06/M08 A3041 RMK A01 T00571084  RH  035%=      5-min Rain = 0
KFR1 011655Z 28002KT 06/M08 A3041 RMK A01 T00601079  RH  036%=      5-min Rain = 0
KFR1 011656Z 29002KT 06/M08 A3041 RMK A01 T00621078  RH  036%=      5-min Rain = 0
KFR1 011657Z 27002KT 06/M08 A3041 RMK A01 T00631080  RH  035%=      5-min Rain = 0
KFR1 011658Z 30001KT 06/M08 A3041 RMK A01 T00631082  RH  035%=      5-min Rain = 0
KFR1 011659Z 24001KT 06/M09 A3041 RMK A01 T00641085  RH  034%=      5-min Rain = 0
KFR1 011700Z 27002KT 06/M09 A3041 RMK A01 T00631087  RH  033%=      5-min Rain = 0
KFR1 011701Z 30002KT 06/M09 A3041 RMK A01 T00631088  RH  033%=      5-min Rain = 0
KFR1 011702Z 29002KT 06/M09 A3041 RMK A01 T00631088  RH  033%=      5-min Rain = 0
KFR1 011703Z 28003KT 06/M09 A3041 RMK A01 T00631088  RH  033%=      5-min Rain = 0
KFR1 011704Z 27002KT 06/M09 A3041 RMK A01 T00631089  RH  033%=      5-min Rain = 0
KFR1 011705Z 27002KT 06/M09 A3041 RMK A01 T00631089  RH  033%=      5-min Rain = 0
KFR1 011706Z 27002KT 06/M09 A3041 RMK A01 T00631089  RH  033%=      5-min Rain = 0
KFR1 011707Z 25003KT 06/M09 A3041 RMK A01 T00641087  RH  033%=      5-min Rain = 0
KFR1 011708Z 25003KT 07/M09 A3041 RMK A01 T00661087  RH  033%=      5-min Rain = 0
KFR1 011709Z 28003KT 07/M09 A3041 RMK A01 T00661087  RH  033%=      5-min Rain = 0
KFR1 011710Z 28003KT 07/M09 A3041 RMK A01 T00651089  RH  032%=      5-min Rain = 0
KFR1 011711Z 28002KT 07/M09 A3041 RMK A01 T00651087  RH  033%=      5-min Rain = 0
KFR1 011712Z 28002KT 07/M09 A3041 RMK A01 T00681086  RH  032%=      5-min Rain = 0
KFR1 011713Z 26002KT 07/M09 A3041 RMK A01 T00691087  RH  032%=      5-min Rain = 0
KFR1 011714Z 27003KT 07/M09 A3041 RMK A01 T00691087  RH  032%=      5-min Rain = 0
KFR1 011715Z 26003KT 07/M09 A304 RMK A01 T00691087  RH  032%=      5-min Rain = 0
KFR1 011716Z 25004KT 07/M09 A304 RMK A01 T00691088  RH  032%=      5-min Rain = 0
KFR1 011717Z 29003KT 07/M09 A304 RMK A01 T00681088  RH  032%=      5-min Rain = 0
KFR1 011718Z 28002KT 07/M09 A304 RMK A01 T00681086  RH  032%=      5-min Rain = 0
KFR1 011719Z 32001KT 07/M09 A304 RMK A01 T00701087  RH  032%=      5-min Rain = 0
KFR1 011720Z 24001KT 07/M09 A3041 RMK A01 T00711085  RH  032%=      5-min Rain = 0
KFR1 011721Z 23000KT 07/M09 A3041 RMK A01 T00731085  RH  032%=      5-min Rain = 0
KFR1 011722Z 27001KT 07/M09 A3041 RMK A01 T00741085  RH  031%=      5-min Rain = 0
KFR1 011723Z 27001KT 08/M09 A3041 RMK A01 T00751087  RH  031%=      5-min Rain = 0
KFR1 011724Z 22000KT 08/M09 A3041 RMK A01 T00761087  RH  031%=      5-min Rain = 0
KFR1 011725Z 27001KT 08/M09 A3041 RMK A01 T00761086  RH  030%=      5-min Rain = 0
KFR1 011726Z 29003KT 08/M09 A3041 RMK A01 T00761087  RH  030%=      5-min Rain = 0
KFR1 011727Z 30003KT 07/M09 A3041 RMK A01 T00741088  RH  030%=      5-min Rain = 0
KFR1 011728Z 28003KT 07/M09 A3041 RMK A01 T00741087  RH  031%=      5-min Rain = 0
KFR1 011729Z 34002KT 07/M09 A3041 RMK A01 T00741086  RH  031%=      5-min Rain = 0
KFR1 011730Z 35002KT 08/M09 A3041 RMK A01 T00751087  RH  031%=      5-min Rain = 0
KFR1 011731Z 35001KT 07/M09 A3041 RMK A01 T00741090  RH  030%=      5-min Rain = 0
KFR1 011732Z 26001KT 08/M09 A304 RMK A01 T00751086  RH  031%=      5-min Rain = 0
KFR1 011733Z 33001KT 08/M08 A304 RMK A01 T00801080  RH  031%=      5-min Rain = 0
KFR1 011734Z 30003KT 08/M08 A304 RMK A01 T00841082  RH  030%=      5-min Rain = 0
KFR1 011735Z 33002KT 08/M08 A3041 RMK A01 T00841083  RH  030%=      5-min Rain = 0
KFR1 011736Z 35005KT 08/M09 A3041 RMK A01 T00831087  RH  029%=      5-min Rain = 0
KFR1 011737Z 36005KT 08/M09 A304 RMK A01 T00801092  RH  028%=      5-min Rain = 0
KFR1 011738Z 35004KT 08/M09 A304 RMK A01 T00781094  RH  028%=      5-min Rain = 0
KFR1 011739Z 00002KT 08/M09 A304 RMK A01 T00801090  RH  029%=      5-min Rain = 0
KFR1 011740Z 35002KT 08/M09 A3041 RMK A01 T00811090  RH  029%=      5-min Rain = 0
KFR1 011741Z 00003KT 08/M09 A3041 RMK A01 T00831089  RH  029%=      5-min Rain = 0
KFR1 011742Z 35003KT 08/M09 A3041 RMK A01 T00841093  RH  028%=      5-min Rain = 0
KFR1 011743Z 01004KT 08/M09 A304 RMK A01 T00831091  RH  028%=      5-min Rain = 0
KFR1 011744Z 01006KT 08/M09 A304 RMK A01 T00841093  RH  028%=      5-min Rain = 0
KFR1 011745Z 01005KT 08/M10 A304 RMK A01 T00821095  RH  028%=      5-min Rain = 0
KFR1 011746Z 01004KT 08/M10 A304 RMK A01 T00801096  RH  028%=      5-min Rain = 0
KFR1 011747Z 01005KT 08/M09 A304 RMK A01 T00801094  RH  028%=      5-min Rain = 0
KFR1 011748Z 00003KT 08/M09 A304 RMK A01 T00811092  RH  028%=      5-min Rain = 0
KFR1 011749Z 35002KT 08/M09 A304 RMK A01 T00811093  RH  028%=      5-min Rain = 0
KFR1 011750Z 04003KT 08/M09 A304 RMK A01 T00811094  RH  028%=      5-min Rain = 0
KFR1 011751Z 01004KT 08/M10 A3041 RMK A01 T00821095  RH  028%=      5-min Rain = 0
KFR1 011752Z 02006KT 08/M10 A3041 RMK A01 T00821095  RH  028%=      5-min Rain = 0
KFR1 011753Z 01005KT 08/M10 A3041 RMK A01 T00811099  RH  027%=      5-min Rain = 0
KFR1 011754Z 01005KT 08/M10 A3041 RMK A01 T00801099  RH  027%=      5-min Rain = 0
KFR1 011755Z 00002KT 08/M10 A3041 RMK A01 T00791099  RH  027%=      5-min Rain = 0
KFR1 011756Z 34003KT 08/M10 A3041 RMK A01 T00781099  RH  027%=      5-min Rain = 0
KFR1 011757Z 00004KT 08/M10 A3041 RMK A01 T00791099  RH  027%=      5-min Rain = 0
KFR1 011758Z 36005KT 08/M10 A3041 RMK A01 T00811099  RH  027%=      5-min Rain = 0
KFR1 011759Z 35005KT 08/M10 A3041 RMK A01 T00821099  RH  027%=      5-min Rain = 0
KFR1 011800Z 35004KT 08/M10 A3041 RMK A01 T00821099  RH  027%=      5-min Rain = 0
KFR1 011801Z 35005KT 08/M10 A3041 RMK A01 T00831097  RH  027%=      5-min Rain = 0
KFR1 011802Z 02006KT 08/M10 A304 RMK A01 T00841099  RH  026%=      5-min Rain = 0
KFR1 011803Z 02004KT 09/M10 A304 RMK A01 T00851101  RH  026%=      5-min Rain = 0
KFR1 011804Z 02003KT 08/M10 A304 RMK A01 T00841103  RH  025%=      5-min Rain = 0
KFR1 011805Z 01005KT 09/M10 A304 RMK A01 T00851104  RH  025%=      5-min Rain = 0
KFR1 011806Z 01004KT 08/M11 A3041 RMK A01 T00841107  RH  025%=      5-min Rain = 0
KFR1 011807Z 03005KT 09/M11 A304 RMK A01 T00851106  RH  025%=      5-min Rain = 0
KFR1 011808Z 04004KT 09/M11 A304 RMK A01 T00851109  RH  024%=      5-min Rain = 0
KFR1 011809Z 04003KT 08/M11 A304 RMK A01 T00841109  RH  024%=      5-min Rain = 0
KFR1 011810Z 02002KT 09/M11 A304 RMK A01 T00851105  RH  025%=      5-min Rain = 0
KFR1 011811Z 01003KT 09/M10 A304 RMK A01 T00921101  RH  025%=      5-min Rain = 0
KFR1 011812Z 36003KT 09/M11 A3041 RMK A01 T00931107  RH  023%=      5-min Rain = 0
KFR1 011813Z 02003KT 09/M11 A3041 RMK A01 T00881112  RH  023%=      5-min Rain = 0
KFR1 011814Z 34002KT 09/M11 A304 RMK A01 T00851111  RH  024%=      5-min Rain = 0
KFR1 011815Z 31003KT 09/M11 A304 RMK A01 T00871107  RH  024%=      5-min Rain = 0
KFR1 011816Z 31003KT 09/M11 A304 RMK A01 T00901109  RH  023%=      5-min Rain = 0
KFR1 011817Z 02004KT 09/M11 A304 RMK A01 T00901112  RH  023%=      5-min Rain = 0
KFR1 011818Z 02003KT 09/M11 A304 RMK A01 T00891110  RH  023%=      5-min Rain = 0
KFR1 011819Z 03004KT 09/M11 A304 RMK A01 T00901106  RH  024%=      5-min Rain = 0
KFR1 011820Z 01004KT 09/M11 A304 RMK A01 T00931106  RH  023%=      5-min Rain = 0
KFR1 011821Z 04004KT 09/M11 A304 RMK A01 T00921107  RH  023%=      5-min Rain = 0
KFR1 011822Z 08007KT 09/M11 A304 RMK A01 T00931109  RH  023%=      5-min Rain = 0
KFR1 011823Z 07005KT 09/M12 A304 RMK A01 T00891117  RH  022%=      5-min Rain = 0
KFR1 011824Z 09002KT 09/M12 A304 RMK A01 T00881118  RH  022%=      5-min Rain = 0
KFR1 011825Z 08002KT 09/M12 A304 RMK A01 T00881117  RH  022%=      5-min Rain = 0
KFR1 011826Z 07005KT 09/M11 A304 RMK A01 T00931113  RH  022%=      5-min Rain = 0
KFR1 011827Z 08005KT 10/M13 A304 RMK A01 T00951128  RH  019%=      5-min Rain = 0
KFR1 011828Z 08005KT 09/M13 A304 RMK A01 T00911133  RH  019%=      5-min Rain = 0
KFR1 011829Z 09004KT 09/M13 A304 RMK A01 T00901128  RH  020%=      5-min Rain = 0
KFR1 011830Z 09002KT 09/M13 A304 RMK A01 T00901129  RH  020%=      5-min Rain = 0
KFR1 011831Z 02003KT 09/M12 A304 RMK A01 T00901123  RH  021%=      5-min Rain = 0
KFR1 011832Z 36008KT 10/M11 A304 RMK A01 T00961114  RH  021%=      5-min Rain = 0
KFR1 011833Z 35007KT 10/M12 A304 RMK A01 T00961122  RH  020%=      5-min Rain = 0
KFR1 011834Z 01005KT 09/M13 A304 RMK A01 T00921127  RH  020%=      5-min Rain = 0
KFR1 011835Z 36003KT 09/M13 A304 RMK A01 T00891128  RH  020%=      5-min Rain = 0
KFR1 011836Z 32002KT 09/M13 A304 RMK A01 T00881125  RH  021%=      5-min Rain = 0
KFR1 011837Z 30002KT 09/M12 A304 RMK A01 T00891124  RH  021%=      5-min Rain = 0
KFR1 011838Z 02002KT 09/M12 A304 RMK A01 T00911120  RH  021%=      5-min Rain = 0
KFR1 011839Z 02002KT 09/M12 A304 RMK A01 T00921121  RH  021%=      5-min Rain = 0
KFR1 011840Z 34004KT 09/M12 A304 RMK A01 T00921120  RH  021%=      5-min Rain = 0
KFR1 011841Z 35005KT 10/M12 A304 RMK A01 T00951117  RH  021%=      5-min Rain = 0
KFR1 011842Z 34006KT 10/M12 A304 RMK A01 T00961116  RH  021%=      5-min Rain = 0
KFR1 011843Z 36005KT 10/M12 A304 RMK A01 T00971118  RH  021%=      5-min Rain = 0
KFR1 011844Z 01006KT 10/M12 A3039 RMK A01 T00961117  RH  021%=      5-min Rain = 0
KFR1 011845Z 01008KT 10/M12 A3039 RMK A01 T00961121  RH  020%=      5-min Rain = 0
KFR1 011846Z 02009KT 10/M12 A304 RMK A01 T00951124  RH  020%=      5-min Rain = 0
KFR1 011847Z 03004KT 09/M12 A304 RMK A01 T00941124  RH  020%=      5-min Rain = 0
KFR1 011848Z 07001KT 09/M12 A3039 RMK A01 T00941123  RH  020%=      5-min Rain = 0
KFR1 011849Z 34004KT 10/M12 A3039 RMK A01 T00951122  RH  020%=      5-min Rain = 0
KFR1 011850Z 35005KT 10/M12 A3039 RMK A01 T00971122  RH  020%=      5-min Rain = 0
KFR1 011851Z 34005KT 10/M13 A3039 RMK A01 T00961125  RH  020%=      5-min Rain = 0
KFR1 011852Z 35004KT 09/M13 A3039 RMK A01 T00941126  RH  020%=      5-min Rain = 0
KFR1 011853Z 33002KT 10/M12 A3039 RMK A01 T00951124  RH  020%=      5-min Rain = 0
KFR1 011854Z 01001KT 10/M12 A3039 RMK A01 T00971124  RH  020%=      5-min Rain = 0
KFR1 011855Z 02002KT 10/M12 A3039 RMK A01 T01001123  RH  019%=      5-min Rain = 0
KFR1 011856Z 34003KT 10/M12 A3039 RMK A01 T01021122  RH  019%=      5-min Rain = 0
KFR1 011857Z 35005KT 10/M13 A3039 RMK A01 T01011125  RH  019%=      5-min Rain = 0
KFR1 011858Z 01003KT 10/M13 A3039 RMK A01 T01001127  RH  019%=      5-min Rain = 0
KFR1 011859Z 35002KT 10/M13 A3039 RMK A01 T00991129  RH  019%=      5-min Rain = 0
KFR1 011900Z 32003KT 10/M13 A3039 RMK A01 T00991127  RH  019%=      5-min Rain = 0
KFR1 011901Z 30002KT 10/M13 A3039 RMK A01 T01001126  RH  019%=      5-min Rain = 0
KFR1 011902Z 28002KT 10/M13 A3039 RMK A01 T01001130  RH  018%=      5-min Rain = 0
KFR1 011903Z 30003KT 10/M13 A3039 RMK A01 T01001129  RH  018%=      5-min Rain = 0
KFR1 011904Z 00003KT 10/M13 A3039 RMK A01 T01011129  RH  018%=      5-min Rain = 0
KFR1 011905Z 32004KT 10/M13 A3039 RMK A01 T01001131  RH  018%=      5-min Rain = 0
KFR1 011906Z 01002KT 10/M13 A3039 RMK A01 T00991133  RH  018%=      5-min Rain = 0
KFR1 011907Z 08002KT 10/M13 A3038 RMK A01 T00971134  RH  018%=      5-min Rain = 0
KFR1 011908Z 07002KT 09/M14 A3038 RMK A01 T00941135  RH  018%=      5-min Rain = 0
KFR1 011909Z 33004KT 10/M13 A3038 RMK A01 T00961128  RH  019%=      5-min Rain = 0
KFR1 011910Z 31005KT 10/M13 A3038 RMK A01 T00991128  RH  019%=      5-min Rain = 0
KFR1 011911Z 32004KT 10/M13 A3038 RMK A01 T00991131  RH  018%=      5-min Rain = 0
KFR1 011912Z 32005KT 10/M13 A3038 RMK A01 T00981129  RH  019%=      5-min Rain = 0
KFR1 011913Z 34005KT 10/M13 A3038 RMK A01 T00971129  RH  019%=      5-min Rain = 0
KFR1 011914Z 32005KT 10/M13 A3038 RMK A01 T00971131  RH  019%=      5-min Rain = 0
KFR1 011915Z 32006KT 10/M13 A3038 RMK A01 T00961128  RH  019%=      5-min Rain = 0
KFR1 011916Z 32005KT 10/M13 A3038 RMK A01 T00981128  RH  019%=      5-min Rain = 0
KFR1 011917Z 32006KT 10/M13 A3038 RMK A01 T00971131  RH  019%=      5-min Rain = 0
KFR1 011918Z 34005KT 10/M13 A3038 RMK A01 T00971128  RH  019%=      5-min Rain = 0
KFR1 011919Z 35007KT 10/M12 A3038 RMK A01 T01021123  RH  019%=      5-min Rain = 0
KFR1 011920Z 35006KT 10/M13 A3038 RMK A01 T01031127  RH  018%=      5-min Rain = 0
KFR1 011921Z 35005KT 10/M13 A3038 RMK A01 T01011133  RH  018%=      5-min Rain = 0
KFR1 011922Z 00004KT 10/M13 A3038 RMK A01 T00981133  RH  018%=      5-min Rain = 0
KFR1 011923Z 34003KT 10/M13 A3038 RMK A01 T01001131  RH  018%=      5-min Rain = 0
KFR1 011924Z 01003KT 10/M13 A3038 RMK A01 T01021131  RH  018%=      5-min Rain = 0
KFR1 011925Z 04003KT 10/M13 A3038 RMK A01 T01011134  RH  018%=      5-min Rain = 0
KFR1 011926Z 05001KT 10/M14 A3038 RMK A01 T00991136  RH  018%=      5-min Rain = 0
KFR1 011927Z 00003KT 10/M14 A3038 RMK A01 T00981137  RH  018%=      5-min Rain = 0
KFR1 011928Z 01003KT 10/M14 A3038 RMK A01 T00971137  RH  018%=      5-min Rain = 0
KFR1 011929Z 34002KT 10/M14 A3038 RMK A01 T00981136  RH  018%=      5-min Rain = 0
KFR1 011930Z 32001KT 10/M13 A3038 RMK A01 T01011133  RH  018%=      5-min Rain = 0
KFR1 011931Z 33003KT 10/M14 A3038 RMK A01 T01031136  RH  017%=      5-min Rain = 0
KFR1 011932Z 34003KT 11/M14 A3037 RMK A01 T01051136  RH  017%=      5-min Rain = 0
KFR1 011933Z 34004KT 11/M14 A3037 RMK A01 T01051139  RH  017%=      5-min Rain = 0
KFR1 011934Z 02006KT 11/M14 A3037 RMK A01 T01081138  RH  016%=      5-min Rain = 0
KFR1 011935Z 03006KT 11/M14 A3037 RMK A01 T01101141  RH  016%=      5-min Rain = 0
KFR1 011936Z 04005KT 11/M15 A3037 RMK A01 T01061149  RH  015%=      5-min Rain = 0
KFR1 011937Z 08008KT 11/M15 A3037 RMK A01 T01061146  RH  015%=      5-min Rain = 0
KFR1 011938Z 06007KT 11/M15 A3037 RMK A01 T01061154  RH  015%=      5-min Rain = 0
KFR1 011939Z 05005KT 10/M16 A3037 RMK A01 T01031157  RH  014%=      5-min Rain = 0
KFR1 011940Z 09005KT 10/M15 A3037 RMK A01 T01041153  RH  015%=      5-min Rain = 0
KFR1 011941Z 11004KT 10/M15 A3037 RMK A01 T01031153  RH  015%=      5-min Rain = 0
KFR1 011942Z 11003KT 10/M16 A3037 RMK A01 T01011155  RH  015%=      5-min Rain = 0
KFR1 011943Z 14003KT 10/M16 A3037 RMK A01 T00981156  RH  015%=      5-min Rain = 0
KFR1 011944Z 15003KT 10/M16 A3037 RMK A01 T00981155  RH  015%=      5-min Rain = 0
KFR1 011945Z 17001KT 10/M15 A3037 RMK A01 T01001151  RH  015%=      5-min Rain = 0
KFR1 011946Z 14001KT 10/M15 A3037 RMK A01 T01031150  RH  015%=      5-min Rain = 0
KFR1 011947Z 29001KT 10/M15 A3037 RMK A01 T01041153  RH  015%=      5-min Rain = 0
KFR1 011948Z 35003KT 11/M15 A3036 RMK A01 T01071146  RH  015%=      5-min Rain = 0
KFR1 011949Z 01003KT 11/M15 A3036 RMK A01 T01101146  RH  015%=      5-min Rain = 0
KFR1 011950Z 35005KT 11/M15 A3036 RMK A01 T01091147  RH  015%=      5-min Rain = 0
KFR1 011951Z 36005KT 11/M15 A3036 RMK A01 T01071147  RH  015%=      5-min Rain = 0
KFR1 011952Z 35006KT 11/M15 A3036 RMK A01 T01061145  RH  016%=      5-min Rain = 0
KFR1 011953Z 33004KT 11/M15 A3036 RMK A01 T01071146  RH  015%=      5-min Rain = 0
KFR1 011954Z 35005KT 11/M15 A3036 RMK A01 T01061146  RH  015%=      5-min Rain = 0
KFR1 011955Z 03006KT 11/M15 A3036 RMK A01 T01061146  RH  016%=      5-min Rain = 0
KFR1 011956Z 07009KT 11/M14 A3036 RMK A01 T01081141  RH  016%=      5-min Rain = 0
KFR1 011957Z 07010KT 11/M14 A3036 RMK A01 T01081144  RH  016%=      5-min Rain = 0
KFR1 011958Z 06009KT 10/M15 A3036 RMK A01 T01041150  RH  015%=      5-min Rain = 0
KFR1 011959Z 02003KT 10/M15 A3036 RMK A01 T00991152  RH  015%=      5-min Rain = 0
KFR1 012000Z 04001KT 10/M15 A3036 RMK A01 T01001148  RH  016%=      5-min Rain = 0
KFR1 012001Z 09003KT 10/M14 A3036 RMK A01 T01021144  RH  016%=      5-min Rain = 0
KFR1 012002Z 07007KT 11/M14 A3036 RMK A01 T01081140  RH  016%=      5-min Rain = 0
KFR1 012003Z 06004KT 11/M15 A3036 RMK A01 T01081146  RH  015%=      5-min Rain = 0
KFR1 012004Z 04003KT 11/M14 A3036 RMK A01 T01071144  RH  016%=      5-min Rain = 0
KFR1 012005Z 09005KT 11/M14 A3035 RMK A01 T01091142  RH  016%=      5-min Rain = 0
KFR1 012006Z 10006KT 11/M14 A3035 RMK A01 T01091143  RH  016%=      5-min Rain = 0
KFR1 012007Z 10005KT 11/M15 A3035 RMK A01 T01051148  RH  015%=      5-min Rain = 0
KFR1 012008Z 15002KT 10/M15 A3035 RMK A01 T01011152  RH  015%=      5-min Rain = 0
KFR1 012009Z 16001KT 10/M15 A3035 RMK A01 T01001149  RH  016%=      5-min Rain = 0
KFR1 012010Z 18000KT 10/M15 A3035 RMK A01 T01031145  RH  016%=      5-min Rain = 0
KFR1 012011Z 08004KT 11/M14 A3035 RMK A01 T01081142  RH  016%=      5-min Rain = 0
KFR1 012012Z 10005KT 11/M14 A3035 RMK A01 T01091144  RH  015%=      5-min Rain = 0
KFR1 012013Z 10007KT 11/M15 A3035 RMK A01 T01071146  RH  015%=      5-min Rain = 0
KFR1 012014Z 11005KT 11/M15 A3035 RMK A01 T01071146  RH  015%=      5-min Rain = 0
KFR1 012015Z 09006KT 11/M15 A3035 RMK A01 T01061145  RH  016%=      5-min Rain = 0
KFR1 012016Z 11006KT 11/M15 A3035 RMK A01 T01071147  RH  015%=      5-min Rain = 0
KFR1 012017Z 12005KT 11/M15 A3035 RMK A01 T01051150  RH  015%=      5-min Rain = 0
KFR1 012018Z 07003KT 11/M15 A3035 RMK A01 T01051148  RH  015%=      5-min Rain = 0
KFR1 012019Z 05005KT 11/M14 A3035 RMK A01 T01081144  RH  016%=      5-min Rain = 0
KFR1 012020Z 07003KT 11/M15 A3035 RMK A01 T01081147  RH  015%=      5-min Rain = 0
KFR1 012021Z 02003KT 11/M15 A3035 RMK A01 T01051148  RH  015%=      5-min Rain = 0
KFR1 012022Z 03002KT 11/M15 A3035 RMK A01 T01051148  RH  015%=      5-min Rain = 0
KFR1 012023Z 02004KT 11/M15 A3035 RMK A01 T01051148  RH  015%=      5-min Rain = 0
KFR1 012024Z 36003KT 11/M15 A3035 RMK A01 T01061145  RH  016%=      5-min Rain = 0
KFR1 012025Z 05003KT 11/M14 A3035 RMK A01 T01091143  RH  016%=      5-min Rain = 0
KFR1 012026Z 03002KT 11/M14 A3035 RMK A01 T01101144  RH  015%=      5-min Rain = 0
KFR1 012027Z 02001KT 11/M14 A3035 RMK A01 T01121141  RH  016%=      5-min Rain = 0
KFR1 012028Z 02002KT 11/M14 A3035 RMK A01 T01141141  RH  015%=      5-min Rain = 0
KFR1 012029Z 25002KT 11/M14 A3035 RMK A01 T01141144  RH  015%=      5-min Rain = 0
KFR1 012030Z 26001KT 12/M14 A3035 RMK A01 T01161142  RH  015%=      5-min Rain = 0
KFR1 012031Z 30002KT 12/M14 A3035 RMK A01 T01171144  RH  015%=      5-min Rain = 0
KFR1 012032Z 02004KT 12/M15 A3035 RMK A01 T01161146  RH  014%=      5-min Rain = 0
KFR1 012033Z 03003KT 11/M15 A3035 RMK A01 T01141147  RH  015%=      5-min Rain = 0
KFR1 012034Z 00005KT 11/M15 A3035 RMK A01 T01121147  RH  015%=      5-min Rain = 0
KFR1 012035Z 33003KT 11/M15 A3035 RMK A01 T01101148  RH  015%=      5-min Rain = 0
KFR1 012036Z 32003KT 11/M15 A3035 RMK A01 T01071149  RH  015%=      5-min Rain = 0
KFR1 012037Z 32003KT 11/M15 A3035 RMK A01 T01081145  RH  015%=      5-min Rain = 0
KFR1 012038Z 34003KT 11/M15 A3035 RMK A01 T01101145  RH  015%=      5-min Rain = 0
KFR1 012039Z 04005KT 11/M15 A3034 RMK A01 T01101146  RH  015%=      5-min Rain = 0
KFR1 012040Z 06007KT 11/M15 A3034 RMK A01 T01081147  RH  015%=      5-min Rain = 0
KFR1 012041Z 05005KT 11/M15 A3034 RMK A01 T01051148  RH  015%=      5-min Rain = 0
KFR1 012042Z 08004KT 10/M15 A3034 RMK A01 T01031146  RH  016%=      5-min Rain = 0
KFR1 012043Z 08004KT 10/M15 A3034 RMK A01 T01031146  RH  016%=      5-min Rain = 0
KFR1 012044Z 08001KT 10/M15 A3034 RMK A01 T01041146  RH  016%=      5-min Rain = 0
KFR1 012045Z 05002KT 11/M14 A3034 RMK A01 T01051144  RH  016%=      5-min Rain = 0
KFR1 012046Z 04006KT 11/M14 A3034 RMK A01 T01061144  RH  016%=      5-min Rain = 0
KFR1 012047Z 05007KT 11/M14 A3034 RMK A01 T01081143  RH  016%=      5-min Rain = 0
KFR1 012048Z 06006KT 11/M15 A3034 RMK A01 T01061147  RH  015%=      5-min Rain = 0
KFR1 012049Z 06005KT 11/M15 A3034 RMK A01 T01051146  RH  016%=      5-min Rain = 0
KFR1 012050Z 04005KT 11/M15 A3034 RMK A01 T01051146  RH  016%=      5-min Rain = 0
KFR1 012051Z 05005KT 11/M15 A3034 RMK A01 T01061145  RH  016%=      5-min Rain = 0
KFR1 012052Z 05003KT 11/M15 A3034 RMK A01 T01061146  RH  015%=      5-min Rain = 0
KFR1 012053Z 01005KT 11/M15 A3034 RMK A01 T01061147  RH  015%=      5-min Rain = 0
KFR1 012054Z 01005KT 11/M15 A3034 RMK A01 T01061146  RH  015%=      5-min Rain = 0
KFR1 012055Z 02004KT 11/M15 A3034 RMK A01 T01081145  RH  015%=      5-min Rain = 0
KFR1 012056Z 03004KT 11/M15 A3034 RMK A01 T01071147  RH  015%=      5-min Rain = 0
KFR1 012057Z 35002KT 11/M15 A3034 RMK A01 T01061148  RH  015%=      5-min Rain = 0
KFR1 012058Z 33005KT 11/M15 A3034 RMK A01 T01051145  RH  016%=      5-min Rain = 0
KFR1 012059Z 32006KT 11/M14 A3034 RMK A01 T01081143  RH  016%=      5-min Rain = 0
KFR1 012100Z 33004KT 11/M14 A3034 RMK A01 T01091144  RH  015%=      5-min Rain = 0
KFR1 012101Z 34006KT 11/M14 A3034 RMK A01 T01101142  RH  016%=      5-min Rain = 0
KFR1 012102Z 33005KT 11/M14 A3034 RMK A01 T01111144  RH  015%=      5-min Rain = 0
KFR1 012103Z 32005KT 11/M15 A3034 RMK A01 T01101146  RH  015%=      5-min Rain = 0
KFR1 012104Z 34003KT 11/M15 A3034 RMK A01 T01071149  RH  015%=      5-min Rain = 0
KFR1 012105Z 35002KT 11/M15 A3034 RMK A01 T01061147  RH  015%=      5-min Rain = 0
KFR1 012106Z 35004KT 11/M14 A3034 RMK A01 T01081142  RH  016%=      5-min Rain = 0
KFR1 012107Z 01008KT 11/M15 A3034 RMK A01 T01101145  RH  015%=      5-min Rain = 0
KFR1 012108Z 03006KT 11/M15 A3034 RMK A01 T01081148  RH  015%=      5-min Rain = 0
KFR1 012109Z 05005KT 11/M15 A3034 RMK A01 T01081148  RH  015%=      5-min Rain = 0
KFR1 012110Z 08002KT 11/M15 A3034 RMK A01 T01081150  RH  015%=      5-min Rain = 0
KFR1 012111Z 12001KT 11/M15 A3034 RMK A01 T01071150  RH  015%=      5-min Rain = 0
KFR1 012112Z 11001KT 11/M15 A3034 RMK A01 T01081150  RH  015%=      5-min Rain = 0
KFR1 012113Z 36001KT 11/M15 A3034 RMK A01 T01101148  RH  015%=      5-min Rain = 0
KFR1 012114Z 02005KT 11/M15 A3034 RMK A01 T01121147  RH  015%=      5-min Rain = 0
KFR1 012115Z 05002KT 11/M15 A3034 RMK A01 T01111151  RH  014%=      5-min Rain = 0
KFR1 012116Z 07002KT 11/M15 A3034 RMK A01 T01101152  RH  014%=      5-min Rain = 0
KFR1 012117Z 08003KT 11/M15 A3034 RMK A01 T01091153  RH  014%=      5-min Rain = 0
KFR1 012118Z 11002KT 11/M15 A3034 RMK A01 T01101152  RH  014%=      5-min Rain = 0
KFR1 012119Z 08002KT 11/M15 A3034 RMK A01 T01111149  RH  015%=      5-min Rain = 0
KFR1 012120Z 36005KT 11/M15 A3034 RMK A01 T01121148  RH  015%=      5-min Rain = 0
KFR1 012121Z 00005KT 11/M15 A3034 RMK A01 T01111150  RH  014%=      5-min Rain = 0
KFR1 012122Z 01004KT 11/M15 A3034 RMK A01 T01101151  RH  015%=      5-min Rain = 0
KFR1 012123Z 00005KT 11/M15 A3034 RMK A01 T01101150  RH  015%=      5-min Rain = 0
KFR1 012124Z 01005KT 11/M15 A3034 RMK A01 T01091151  RH  015%=      5-min Rain = 0
KFR1 012125Z 02005KT 11/M15 A3034 RMK A01 T01081152  RH  015%=      5-min Rain = 0
KFR1 012126Z 02005KT 11/M15 A3034 RMK A01 T01071151  RH  015%=      5-min Rain = 0
KFR1 012127Z 00005KT 11/M15 A3034 RMK A01 T01081150  RH  015%=      5-min Rain = 0
KFR1 012128Z 00005KT 11/M15 A3034 RMK A01 T01081150  RH  015%=      5-min Rain = 0
KFR1 012129Z 00004KT 11/M15 A3034 RMK A01 T01081150  RH  015%=      5-min Rain = 0
KFR1 012130Z 34003KT 11/M15 A3034 RMK A01 T01101148  RH  015%=      5-min Rain = 0
KFR1 012131Z 02006KT 11/M15 A3034 RMK A01 T01121145  RH  015%=      5-min Rain = 0
KFR1 012132Z 03005KT 11/M15 A3034 RMK A01 T01131146  RH  015%=      5-min Rain = 0
KFR1 012133Z 01002KT 11/M15 A3034 RMK A01 T01131148  RH  015%=      5-min Rain = 0
KFR1 012134Z 10000KT 11/M15 A3034 RMK A01 T01121151  RH  014%=      5-min Rain = 0
KFR1 012135Z 11003KT 11/M15 A3034 RMK A01 T01121150  RH  014%=      5-min Rain = 0
KFR1 012136Z 12005KT 11/M15 A3034 RMK A01 T01111152  RH  014%=      5-min Rain = 0
KFR1 012137Z 11004KT 11/M15 A3034 RMK A01 T01091152  RH  014%=      5-min Rain = 0
KFR1 012138Z 09007KT 11/M15 A3034 RMK A01 T01101149  RH  015%=      5-min Rain = 0
KFR1 012139Z 09006KT 11/M15 A3034 RMK A01 T01101150  RH  015%=      5-min Rain = 0
KFR1 012140Z 09005KT 11/M15 A3034 RMK A01 T01111149  RH  015%=      5-min Rain = 0
KFR1 012141Z 09005KT 11/M15 A3034 RMK A01 T01101152  RH  014%=      5-min Rain = 0
KFR1 012142Z 05005KT 11/M15 A3034 RMK A01 T01091151  RH  015%=      5-min Rain = 0
KFR1 012143Z 03004KT 11/M15 A3034 RMK A01 T01101150  RH  015%=      5-min Rain = 0
KFR1 012144Z 03001KT 11/M15 A3034 RMK A01 T01101150  RH  015%=      5-min Rain = 0
KFR1 012145Z 09003KT 11/M15 A3034 RMK A01 T01101151  RH  015%=      5-min Rain = 0
KFR1 012146Z 11003KT 11/M15 A3034 RMK A01 T01101151  RH  015%=      5-min Rain = 0
KFR1 012147Z 08003KT 11/M15 A3034 RMK A01 T01101150  RH  015%=      5-min Rain = 0
KFR1 012148Z 06005KT 11/M15 A3034 RMK A01 T01111148  RH  015%=      5-min Rain = 0
KFR1 012149Z 06006KT 11/M15 A3034 RMK A01 T01111150  RH  015%=      5-min Rain = 0
KFR1 012150Z 04004KT 11/M15 A3034 RMK A01 T01111149  RH  015%=      5-min Rain = 0
KFR1 012151Z 05003KT 11/M15 A3034 RMK A01 T01101149  RH  015%=      5-min Rain = 0
KFR1 012152Z 04003KT 11/M15 A3034 RMK A01 T01111149  RH  015%=      5-min Rain = 0
KFR1 012153Z 01003KT 11/M15 A3034 RMK A01 T01111148  RH  015%=      5-min Rain = 0
KFR1 012154Z 35002KT 11/M15 A3034 RMK A01 T01111149  RH  015%=      5-min Rain = 0
KFR1 012155Z 31001KT 11/M15 A3034 RMK A01 T01101149  RH  015%=      5-min Rain = 0
KFR1 012156Z 12001KT 11/M15 A3034 RMK A01 T01121145  RH  015%=      5-min Rain = 0
KFR1 012157Z 12001KT 12/M15 A3034 RMK A01 T01151147  RH  014%=      5-min Rain = 0
KFR1 012158Z 07000KT 12/M15 A3034 RMK A01 T01161150  RH  014%=      5-min Rain = 0
KFR1 012159Z 03002KT 12/M15 A3033 RMK A01 T01161150  RH  014%=      5-min Rain = 0
KFR1 012200Z 02007KT 12/M15 A3033 RMK A01 T01161150  RH  014%=      5-min Rain = 0
KFR1 012201Z 02008KT 12/M15 A3033 RMK A01 T01151149  RH  014%=      5-min Rain = 0
KFR1 012202Z 02008KT 11/M15 A3033 RMK A01 T01131150  RH  014%=      5-min Rain = 0
KFR1 012203Z 02007KT 11/M15 A3033 RMK A01 T01111150  RH  015%=      5-min Rain = 0
KFR1 012204Z 02008KT 11/M15 A3033 RMK A01 T01121147  RH  015%=      5-min Rain = 0
KFR1 012205Z 03006KT 11/M15 A3034 RMK A01 T01121147  RH  015%=      5-min Rain = 0
KFR1 012206Z 01002KT 11/M15 A3034 RMK A01 T01111149  RH  015%=      5-min Rain = 0
KFR1 012207Z 03001KT 11/M15 A3033 RMK A01 T01111149  RH  015%=      5-min Rain = 0
KFR1 012208Z 02002KT 11/M15 A3033 RMK A01 T01121149  RH  015%=      5-min Rain = 0
KFR1 012209Z 01002KT 11/M15 A3033 RMK A01 T01131148  RH  015%=      5-min Rain = 0
KFR1 012210Z 03003KT 11/M15 A3033 RMK A01 T01141146  RH  015%=      5-min Rain = 0
KFR1 012211Z 03004KT 12/M15 A3033 RMK A01 T01151147  RH  014%=      5-min Rain = 0
KFR1 012212Z 06007KT 11/M15 A3033 RMK A01 T01141149  RH  014%=      5-min Rain = 0
KFR1 012213Z 06006KT 11/M15 A3033 RMK A01 T01121151  RH  014%=      5-min Rain = 0
KFR1 012214Z 06004KT 11/M16 A3033 RMK A01 T01081155  RH  014%=      5-min Rain = 0
KFR1 012215Z 05005KT 11/M15 A3033 RMK A01 T01071153  RH  015%=      5-min Rain = 0
KFR1 012216Z 05004KT 11/M15 A3033 RMK A01 T01081150  RH  015%=      5-min Rain = 0
KFR1 012217Z 06004KT 11/M15 A3033 RMK A01 T01081152  RH  014%=      5-min Rain = 0
KFR1 012218Z 07004KT 11/M15 A3033 RMK A01 T01071154  RH  014%=      5-min Rain = 0
KFR1 012219Z 07004KT 11/M15 A3033 RMK A01 T01081153  RH  014%=      5-min Rain = 0
KFR1 012220Z 09004KT 11/M15 A3033 RMK A01 T01081152  RH  015%=      5-min Rain = 0
KFR1 012221Z 08002KT 11/M15 A3033 RMK A01 T01081152  RH  015%=      5-min Rain = 0
KFR1 012222Z 10001KT 11/M15 A3033 RMK A01 T01081151  RH  015%=      5-min Rain = 0
KFR1 012223Z 09002KT 11/M15 A3033 RMK A01 T01081151  RH  015%=      5-min Rain = 0
KFR1 012224Z 13001KT 11/M15 A3033 RMK A01 T01091151  RH  015%=      5-min Rain = 0
KFR1 012225Z 28001KT 11/M15 A3033 RMK A01 T01091150  RH  015%=      5-min Rain = 0
KFR1 012226Z 27003KT 11/M15 A3033 RMK A01 T01121146  RH  015%=      5-min Rain = 0
KFR1 012227Z 27003KT 11/M15 A3033 RMK A01 T01141146  RH  015%=      5-min Rain = 0
KFR1 012228Z 26002KT 12/M15 A3033 RMK A01 T01161146  RH  014%=      5-min Rain = 0
KFR1 012229Z 26001KT 12/M15 A3033 RMK A01 T01161148  RH  014%=      5-min Rain = 0
KFR1 012230Z 30002KT 12/M15 A3033 RMK A01 T01161148  RH  014%=      5-min Rain = 0
KFR1 012231Z 28002KT 12/M15 A3033 RMK A01 T01161148  RH  014%=      5-min Rain = 0
KFR1 012232Z 27005KT 12/M15 A3033 RMK A01 T01171145  RH  015%=      5-min Rain = 0
KFR1 012233Z 26005KT 12/M14 A3033 RMK A01 T01191142  RH  015%=      5-min Rain = 0
KFR1 012234Z 26006KT 12/M14 A3033 RMK A01 T01211143  RH  014%=      5-min Rain = 0
KFR1 012235Z 24006KT 12/M15 A3033 RMK A01 T01181148  RH  014%=      5-min Rain = 0
KFR1 012236Z 24006KT 12/M15 A3033 RMK A01 T01171147  RH  014%=      5-min Rain = 0
KFR1 012237Z 24006KT 12/M15 A3033 RMK A01 T01151149  RH  014%=      5-min Rain = 0
KFR1 012238Z 24006KT 11/M15 A3033 RMK A01 T01131150  RH  014%=      5-min Rain = 0
KFR1 012239Z 24005KT 11/M15 A3033 RMK A01 T01121149  RH  014%=      5-min Rain = 0
KFR1 012240Z 25004KT 11/M15 A3033 RMK A01 T01121149  RH  015%=      5-min Rain = 0
KFR1 012241Z 27004KT 11/M15 A3033 RMK A01 T01121149  RH  015%=      5-min Rain = 0
KFR1 012242Z 29001KT 11/M15 A3033 RMK A01 T01121150  RH  014%=      5-min Rain = 0
KFR1 012243Z 30001KT 11/M15 A3033 RMK A01 T01121150  RH  014%=      5-min Rain = 0
KFR1 012244Z 31000KT 11/M15 A3033 RMK A01 T01121149  RH  014%=      5-min Rain = 0
KFR1 012245Z 33001KT 11/M15 A3033 RMK A01 T01131148  RH  014%=      5-min Rain = 0
KFR1 012246Z 31002KT 11/M15 A3033 RMK A01 T01141147  RH  015%=      5-min Rain = 0
KFR1 012247Z 29004KT 12/M15 A3033 RMK A01 T01161145  RH  015%=      5-min Rain = 0
KFR1 012248Z 31001KT 12/M15 A3032 RMK A01 T01161148  RH  014%=      5-min Rain = 0
KFR1 012249Z 31004KT 12/M15 A3032 RMK A01 T01151148  RH  014%=      5-min Rain = 0
KFR1 012250Z 32003KT 12/M15 A3032 RMK A01 T01151148  RH  014%=      5-min Rain = 0
KFR1 012251Z 28001KT 11/M15 A3032 RMK A01 T01141151  RH  014%=      5-min Rain = 0
KFR1 012252Z 29001KT 12/M15 A3032 RMK A01 T01151148  RH  014%=      5-min Rain = 0
KFR1 012253Z 01001KT 12/M15 A3032 RMK A01 T01161146  RH  014%=      5-min Rain = 0
KFR1 012254Z 36003KT 12/M15 A3032 RMK A01 T01171146  RH  014%=      5-min Rain = 0
KFR1 012255Z 04004KT 12/M15 A3032 RMK A01 T01171147  RH  014%=      5-min Rain = 0
KFR1 012256Z 05003KT 11/M15 A3032 RMK A01 T01141154  RH  014%=      5-min Rain = 0
KFR1 012257Z 05003KT 11/M16 A3032 RMK A01 T01111156  RH  014%=      5-min Rain = 0
KFR1 012258Z 07002KT 11/M16 A3032 RMK A01 T01101155  RH  014%=      5-min Rain = 0
KFR1 012259Z 08002KT 11/M16 A3032 RMK A01 T01091155  RH  014%=      5-min Rain = 0
KFR1 012300Z 09002KT 11/M15 A3032 RMK A01 T01091154  RH  014%=      5-min Rain = 0
KFR1 012301Z 07003KT 11/M15 A3032 RMK A01 T01091153  RH  014%=      5-min Rain = 0
KFR1 012302Z 08002KT 11/M15 A3032 RMK A01 T01091154  RH  014%=      5-min Rain = 0
KFR1 012303Z 08001KT 11/M15 A3032 RMK A01 T01091152  RH  014%=      5-min Rain = 0
KFR1 012304Z 07000KT 11/M15 A3032 RMK A01 T01101152  RH  014%=      5-min Rain = 0
KFR1 012305Z 05001KT 11/M15 A3032 RMK A01 T01111152  RH  014%=      5-min Rain = 0
KFR1 012306Z 03002KT 11/M15 A3032 RMK A01 T01111153  RH  014%=      5-min Rain = 0
KFR1 012307Z 02002KT 11/M15 A3032 RMK A01 T01111154  RH  014%=      5-min Rain = 0
KFR1 012308Z 36001KT 11/M15 A3032 RMK A01 T01111151  RH  014%=      5-min Rain = 0
KFR1 012309Z 31003KT 11/M15 A3032 RMK A01 T01131147  RH  015%=      5-min Rain = 0
KFR1 012310Z 29003KT 11/M15 A3032 RMK A01 T01141149  RH  014%=      5-min Rain = 0
KFR1 012311Z 27002KT 11/M15 A3032 RMK A01 T01131151  RH  014%=      5-min Rain = 0
KFR1 012312Z 26002KT 11/M15 A3032 RMK A01 T01141148  RH  014%=      5-min Rain = 0
KFR1 012313Z 27002KT 12/M15 A3032 RMK A01 T01161149  RH  014%=      5-min Rain = 0
KFR1 012314Z 27001KT 12/M15 A3032 RMK A01 T01181149  RH  014%=      5-min Rain = 0
KFR1 012315Z 28000KT 12/M15 A3032 RMK A01 T01181150  RH  014%=      5-min Rain = 0
KFR1 012316Z 04001KT 12/M15 A3032 RMK A01 T01191150  RH  014%=      5-min Rain = 0
KFR1 012317Z 35002KT 12/M15 A3032 RMK A01 T01191150  RH  014%=      5-min Rain = 0
KFR1 012318Z 01002KT 12/M15 A3032 RMK A01 T01171151  RH  014%=      5-min Rain = 0
KFR1 012319Z 02001KT 12/M15 A3032 RMK A01 T01161152  RH  014%=      5-min Rain = 0
KFR1 012320Z 01001KT 12/M15 A3032 RMK A01 T01151151  RH  014%=      5-min Rain = 0
KFR1 012321Z 00002KT 11/M15 A3032 RMK A01 T01141150  RH  014%=      5-min Rain = 0
KFR1 012322Z 00001KT 11/M15 A3032 RMK A01 T01131151  RH  014%=      5-min Rain = 0
KFR1 012323Z 02002KT 11/M15 A3032 RMK A01 T01131152  RH  014%=      5-min Rain = 0
KFR1 012324Z 03001KT 11/M15 A3032 RMK A01 T01121153  RH  014%=      5-min Rain = 0
KFR1 012325Z 04001KT 11/M15 A3032 RMK A01 T01121152  RH  014%=      5-min Rain = 0
KFR1 012326Z 01001KT 11/M15 A3032 RMK A01 T01111152  RH  014%=      5-min Rain = 0
KFR1 012327Z 00001KT 11/M15 A3032 RMK A01 T01111150  RH  014%=      5-min Rain = 0
KFR1 012328Z 01002KT 11/M15 A3032 RMK A01 T01111150  RH  014%=      5-min Rain = 0
KFR1 012329Z 01001KT 11/M15 A3032 RMK A01 T01111151  RH  014%=      5-min Rain = 0
KFR1 012330Z 01001KT 11/M15 A3032 RMK A01 T01111152  RH  014%=      5-min Rain = 0
KFR1 012331Z 03000KT 11/M15 A3032 RMK A01 T01111150  RH  014%=      5-min Rain = 0
KFR1 012332Z 00001KT 11/M15 A3032 RMK A01 T01111151  RH  014%=      5-min Rain = 0
KFR1 012333Z 06001KT 11/M15 A3032 RMK A01 T01111150  RH  015%=      5-min Rain = 0
KFR1 012334Z 05002KT 11/M15 A3032 RMK A01 T01111152  RH  014%=      5-min Rain = 0
KFR1 012335Z 03002KT 11/M15 A3032 RMK A01 T01101152  RH  014%=      5-min Rain = 0
KFR1 012336Z 04002KT 11/M15 A3032 RMK A01 T01101152  RH  014%=      5-min Rain = 0
KFR1 012337Z 04001KT 11/M16 A3032 RMK A01 T01091155  RH  014%=      5-min Rain = 0
KFR1 012338Z 02000KT 11/M16 A3032 RMK A01 T01091155  RH  014%=      5-min Rain = 0
KFR1 012339Z 02001KT 11/M16 A3032 RMK A01 T01091155  RH  014%=      5-min Rain = 0
KFR1 012340Z 01001KT 11/M15 A3032 RMK A01 T01091154  RH  014%=      5-min Rain = 0
KFR1 012341Z 35001KT 11/M15 A3032 RMK A01 T01091154  RH  014%=      5-min Rain = 0
KFR1 012342Z 01001KT 11/M15 A3032 RMK A01 T01081154  RH  014%=      5-min Rain = 0
KFR1 012343Z 02001KT 11/M16 A3032 RMK A01 T01081155  RH  014%=      5-min Rain = 0
KFR1 012344Z 01001KT 11/M16 A3032 RMK A01 T01081155  RH  014%=      5-min Rain = 0
KFR1 012345Z 02001KT 11/M16 A3032 RMK A01 T01081155  RH  014%=      5-min Rain = 0
KFR1 012346Z 03001KT 11/M15 A3032 RMK A01 T01081154  RH  014%=      5-min Rain = 0
KFR1 012347Z 02001KT 11/M15 A3032 RMK A01 T01081153  RH  014%=      5-min Rain = 0
KFR1 012348Z 03001KT 11/M15 A3032 RMK A01 T01081151  RH  015%=      5-min Rain = 0
KFR1 012349Z 02001KT 11/M15 A3032 RMK A01 T01081154  RH  014%=      5-min Rain = 0
KFR1 012350Z 02001KT 11/M15 A3032 RMK A01 T01081153  RH  014%=      5-min Rain = 0
KFR1 012351Z 02001KT 11/M15 A3032 RMK A01 T01081152  RH  015%=      5-min Rain = 0
KFR1 012352Z 05001KT 11/M15 A3032 RMK A01 T01081151  RH  015%=      5-min Rain = 0
KFR1 012353Z 04001KT 11/M15 A3032 RMK A01 T01081152  RH  015%=      5-min Rain = 0
KFR1 012354Z 04001KT 11/M15 A3032 RMK A01 T01081152  RH  015%=      5-min Rain = 0
KFR1 012355Z 03002KT 11/M15 A3032 RMK A01 T01071153  RH  015%=      5-min Rain = 0
KFR1 012356Z 03001KT 11/M15 A3032 RMK A01 T01071152  RH  015%=      5-min Rain = 0
KFR1 012357Z 03001KT 11/M15 A3032 RMK A01 T01061152  RH  015%=      5-min Rain = 0
KFR1 012358Z 04002KT 11/M15 A3032 RMK A01 T01051153  RH  015%=      5-min Rain = 0
KFR1 012359Z 05001KT 11/M15 A3032 RMK A01 T01051153  RH  015%=      5-min Rain = 0
KFR1 020000Z 05001KT 11/M15 A3032 RMK A01 T01051153  RH  015%=      5-min Rain = 0
KFR1 020001Z 04002KT 11/M15 A3032 RMK A01 T01051154  RH  015%=      5-min Rain = 0
KFR1 020002Z 03002KT 11/M15 A3032 RMK A01 T01051152  RH  015%=      5-min Rain = 0
KFR1 020003Z 01002KT 10/M15 A3032 RMK A01 T01041153  RH  015%=      5-min Rain = 0
KFR1 020004Z 00002KT 10/M15 A3032 RMK A01 T01041153  RH  015%=      5-min Rain = 0
KFR1 020005Z 01002KT 10/M15 A3032 RMK A01 T01031153  RH  015%=      5-min Rain = 0
KFR1 020006Z 01001KT 10/M15 A3032 RMK A01 T01041154  RH  015%=      5-min Rain = 0
KFR1 020007Z 02002KT 10/M15 A3032 RMK A01 T01041154  RH  015%=      5-min Rain = 0
KFR1 020008Z 02002KT 10/M16 A3032 RMK A01 T01041155  RH  015%=      5-min Rain = 0
KFR1 020009Z 02002KT 10/M15 A3032 RMK A01 T01041154  RH  015%=      5-min Rain = 0
KFR1 020010Z 02002KT 10/M15 A3032 RMK A01 T01041153  RH  015%=      5-min Rain = 0
KFR1 020011Z 02002KT 10/M15 A3032 RMK A01 T01041154  RH  015%=      5-min Rain = 0
KFR1 020012Z 02002KT 10/M15 A3032 RMK A01 T01041153  RH  015%=      5-min Rain = 0
KFR1 020013Z 02001KT 10/M15 A3032 RMK A01 T01041153  RH  015%=      5-min Rain = 0
KFR1 020014Z 03001KT 10/M15 A3032 RMK A01 T01041153  RH  015%=      5-min Rain = 0
KFR1 020015Z 03002KT 10/M15 A3032 RMK A01 T01041154  RH  015%=      5-min Rain = 0
KFR1 020016Z 03002KT 10/M15 A3032 RMK A01 T01031154  RH  015%=      5-min Rain = 0
KFR1 020017Z 03001KT 10/M15 A3032 RMK A01 T01031153  RH  015%=      5-min Rain = 0
KFR1 020018Z 03001KT 10/M15 A3032 RMK A01 T01031153  RH  015%=      5-min Rain = 0
KFR1 020019Z 03001KT 10/M15 A3032 RMK A01 T01031153  RH  015%=      5-min Rain = 0
KFR1 020020Z 04001KT 10/M15 A3032 RMK A01 T01031153  RH  015%=      5-min Rain = 0
KFR1 020021Z 06001KT 10/M15 A3032 RMK A01 T01021154  RH  015%=      5-min Rain = 0
KFR1 020022Z 06001KT 10/M16 A3032 RMK A01 T01021155  RH  015%=      5-min Rain = 0
KFR1 020023Z 06001KT 10/M16 A3032 RMK A01 T01021156  RH  015%=      5-min Rain = 0
KFR1 020024Z 06000KT 10/M16 A3032 RMK A01 T01021155  RH  015%=      5-min Rain = 0
KFR1 020025Z 06000KT 10/M16 A3032 RMK A01 T01021155  RH  015%=      5-min Rain = 0
KFR1 020026Z 00000KT 10/M16 A3032 RMK A01 T01021155  RH  015%=      5-min Rain = 0
KFR1 020027Z 06000KT 10/M16 A3032 RMK A01 T01021156  RH  015%=      5-min Rain = 0
KFR1 020028Z 06000KT 10/M16 A3032 RMK A01 T01011155  RH  015%=      5-min Rain = 0
KFR1 020029Z 06000KT 10/M16 A3032 RMK A01 T01011155  RH  015%=      5-min Rain = 0
KFR1 020030Z 00000KT 10/M15 A3032 RMK A01 T01011154  RH  015%=      5-min Rain = 0
KFR1 020031Z 00000KT 10/M15 A3032 RMK A01 T01011154  RH  015%=      5-min Rain = 0
KFR1 020032Z 14001KT 10/M15 A3032 RMK A01 T01001153  RH  015%=      5-min Rain = 0
KFR1 020033Z 15002KT 10/M15 A3032 RMK A01 T01001154  RH  015%=      5-min Rain = 0
KFR1 020034Z 16002KT 10/M15 A3032 RMK A01 T01001153  RH  015%=      5-min Rain = 0
KFR1 020035Z 16003KT 10/M15 A3032 RMK A01 T01001153  RH  015%=      5-min Rain = 0
KFR1 020036Z 16003KT 10/M15 A3032 RMK A01 T00991152  RH  015%=      5-min Rain = 0
KFR1 020037Z 16003KT 10/M15 A3032 RMK A01 T00981152  RH  016%=      5-min Rain = 0
KFR1 020038Z 17003KT 10/M15 A3032 RMK A01 T00971152  RH  016%=      5-min Rain = 0
KFR1 020039Z 17003KT 10/M15 A3032 RMK A01 T00971152  RH  016%=      5-min Rain = 0
KFR1 020040Z 17003KT 10/M15 A3032 RMK A01 T00961151  RH  016%=      5-min Rain = 0
KFR1 020041Z 18004KT 10/M15 A3032 RMK A01 T00951151  RH  016%=      5-min Rain = 0
KFR1 020042Z 18004KT 09/M15 A3032 RMK A01 T00941151  RH  016%=      5-min Rain = 0
KFR1 020043Z 18004KT 09/M15 A3032 RMK A01 T00931151  RH  016%=      5-min Rain = 0
KFR1 020044Z 18004KT 09/M15 A3032 RMK A01 T00911151  RH  016%=      5-min Rain = 0
KFR1 020045Z 18004KT 09/M15 A3032 RMK A01 T00901152  RH  016%=      5-min Rain = 0
KFR1 020046Z 18004KT 09/M15 A3032 RMK A01 T00901151  RH  017%=      5-min Rain = 0
KFR1 020047Z 18004KT 09/M15 A3032 RMK A01 T00891151  RH  017%=      5-min Rain = 0
KFR1 020048Z 18004KT 09/M15 A3032 RMK A01 T00881151  RH  017%=      5-min Rain = 0
KFR1 020049Z 18004KT 09/M15 A3032 RMK A01 T00881151  RH  017%=      5-min Rain = 0
KFR1 020050Z 18004KT 09/M15 A3032 RMK A01 T00881151  RH  017%=      5-min Rain = 0
KFR1 020051Z 18004KT 09/M15 A3032 RMK A01 T00871150  RH  017%=      5-min Rain = 0
KFR1 020052Z 18004KT 09/M15 A3032 RMK A01 T00881150  RH  017%=      5-min Rain = 0
KFR1 020053Z 18003KT 09/M15 A3032 RMK A01 T00871151  RH  017%=      5-min Rain = 0
KFR1 020054Z 18003KT 09/M15 A3032 RMK A01 T00871151  RH  017%=      5-min Rain = 0
KFR1 020055Z 18003KT 09/M15 A3032 RMK A01 T00871152  RH  017%=      5-min Rain = 0
KFR1 020056Z 17003KT 09/M15 A3032 RMK A01 T00881152  RH  017%=      5-min Rain = 0
KFR1 020057Z 17003KT 09/M15 A3032 RMK A01 T00891151  RH  017%=      5-min Rain = 0
KFR1 020058Z 17003KT 09/M15 A3032 RMK A01 T00891152  RH  017%=      5-min Rain = 0
KFR1 020059Z 17003KT 09/M15 A3032 RMK A01 T00891152  RH  016%=      5-min Rain = 0
KFR1 020100Z 17003KT 09/M15 A3032 RMK A01 T00901152  RH  016%=      5-min Rain = 0
KFR1 020101Z 16003KT 09/M15 A3032 RMK A01 T00901152  RH  016%=      5-min Rain = 0
KFR1 020102Z 16003KT 09/M15 A3032 RMK A01 T00901152  RH  016%=      5-min Rain = 0
KFR1 020103Z 16003KT 09/M15 A3032 RMK A01 T00901152  RH  016%=      5-min Rain = 0
KFR1 020104Z 16003KT 09/M15 A3032 RMK A01 T00911152  RH  016%=      5-min Rain = 0
KFR1 020105Z 15003KT 09/M15 A3032 RMK A01 T00911152  RH  016%=      5-min Rain = 0
KFR1 020106Z 14003KT 09/M15 A3032 RMK A01 T00911153  RH  016%=      5-min Rain = 0
KFR1 020107Z 13004KT 09/M15 A3032 RMK A01 T00921153  RH  016%=      5-min Rain = 0
KFR1 020108Z 13004KT 09/M15 A3032 RMK A01 T00921152  RH  016%=      5-min Rain = 0
KFR1 020109Z 14004KT 09/M15 A3032 RMK A01 T00921152  RH  016%=      5-min Rain = 0
KFR1 020110Z 13004KT 09/M15 A3032 RMK A01 T00911153  RH  016%=      5-min Rain = 0
KFR1 020111Z 14004KT 09/M15 A3032 RMK A01 T00921153  RH  016%=      5-min Rain = 0
KFR1 020112Z 14004KT 09/M15 A3032 RMK A01 T00921154  RH  016%=      5-min Rain = 0
KFR1 020113Z 14005KT 09/M15 A3032 RMK A01 T00921154  RH  016%=      5-min Rain = 0
KFR1 020114Z 14005KT 09/M15 A3032 RMK A01 T00921154  RH  016%=      5-min Rain = 0
KFR1 020115Z 14005KT 09/M15 A3032 RMK A01 T00921154  RH  016%=      5-min Rain = 0
KFR1 020116Z 14005KT 09/M15 A3032 RMK A01 T00931154  RH  016%=      5-min Rain = 0
KFR1 020117Z 15004KT 09/M15 A3032 RMK A01 T00921154  RH  016%=      5-min Rain = 0
KFR1 020118Z 15005KT 09/M15 A3032 RMK A01 T00921154  RH  016%=      5-min Rain = 0
KFR1 020119Z 14004KT 09/M15 A3032 RMK A01 T00921154  RH  016%=      5-min Rain = 0
KFR1 020120Z 14004KT 09/M15 A3032 RMK A01 T00921154  RH  016%=      5-min Rain = 0
KFR1 020121Z 15004KT 09/M15 A3032 RMK A01 T00931154  RH  016%=      5-min Rain = 0
KFR1 020122Z 15004KT 09/M16 A3032 RMK A01 T00921155  RH  016%=      5-min Rain = 0
KFR1 020123Z 15004KT 09/M16 A3032 RMK A01 T00911155  RH  016%=      5-min Rain = 0
KFR1 020124Z 15004KT 09/M15 A3032 RMK A01 T00901154  RH  016%=      5-min Rain = 0
KFR1 020125Z 15004KT 09/M15 A3032 RMK A01 T00891154  RH  016%=      5-min Rain = 0
KFR1 020126Z 15004KT 09/M15 A3032 RMK A01 T00881154  RH  016%=      5-min Rain = 0
KFR1 020127Z 15004KT 09/M15 A3032 RMK A01 T00871154  RH  016%=      5-min Rain = 0
KFR1 020128Z 15005KT 09/M15 A3032 RMK A01 T00851154  RH  017%=      5-min Rain = 0
KFR1 020129Z 15005KT 08/M15 A3032 RMK A01 T00831153  RH  017%=      5-min Rain = 0
KFR1 020130Z 15005KT 08/M15 A3032 RMK A01 T00811153  RH  017%=      5-min Rain = 0
KFR1 020131Z 15005KT 08/M15 A3032 RMK A01 T00781153  RH  018%=      5-min Rain = 0
KFR1 020132Z 15005KT 08/M15 A3032 RMK A01 T00761153  RH  018%=      5-min Rain = 0
KFR1 020133Z 16005KT 07/M15 A3032 RMK A01 T00741153  RH  018%=      5-min Rain = 0
KFR1 020134Z 16005KT 07/M15 A3032 RMK A01 T00721153  RH  018%=      5-min Rain = 0
KFR1 020135Z 16005KT 07/M15 A3032 RMK A01 T00711153  RH  019%=      5-min Rain = 0
KFR1 020136Z 16005KT 07/M15 A3032 RMK A01 T00691153  RH  019%=      5-min Rain = 0
KFR1 020137Z 16005KT 07/M15 A3032 RMK A01 T00681153  RH  019%=      5-min Rain = 0
KFR1 020138Z 16005KT 07/M15 A3032 RMK A01 T00671153  RH  019%=      5-min Rain = 0
KFR1 020139Z 16005KT 07/M15 A3032 RMK A01 T00661153  RH  019%=      5-min Rain = 0
KFR1 020140Z 16005KT 07/M15 A3032 RMK A01 T00651153  RH  019%=      5-min Rain = 0
KFR1 020141Z 16005KT 07/M15 A3032 RMK A01 T00661153  RH  019%=      5-min Rain = 0
KFR1 020142Z 16005KT 07/M15 A3032 RMK A01 T00651153  RH  019%=      5-min Rain = 0
KFR1 020143Z 15005KT 07/M15 A3032 RMK A01 T00671153  RH  019%=      5-min Rain = 0
KFR1 020144Z 15005KT 07/M15 A3032 RMK A01 T00691153  RH  019%=      5-min Rain = 0
KFR1 020145Z 15004KT 07/M15 A3032 RMK A01 T00731152  RH  018%=      5-min Rain = 0
KFR1 020146Z 15004KT 08/M15 A3032 RMK A01 T00771152  RH  018%=      5-min Rain = 0
KFR1 020147Z 14004KT 08/M15 A3032 RMK A01 T00811152  RH  017%=      5-min Rain = 0
KFR1 020148Z 14004KT 08/M15 A3032 RMK A01 T00841152  RH  017%=      5-min Rain = 0
KFR1 020149Z 14005KT 09/M15 A3032 RMK A01 T00861153  RH  017%=      5-min Rain = 0
KFR1 020150Z 14004KT 09/M15 A3032 RMK A01 T00881154  RH  016%=      5-min Rain = 0
KFR1 020151Z 14004KT 09/M15 A3032 RMK A01 T00891154  RH  016%=      5-min Rain = 0
KFR1 020152Z 14004KT 09/M15 A3032 RMK A01 T00891154  RH  016%=      5-min Rain = 0
KFR1 020153Z 14004KT 09/M16 A3032 RMK A01 T00901155  RH  016%=      5-min Rain = 0
KFR1 020154Z 14004KT 09/M16 A3032 RMK A01 T00901155  RH  016%=      5-min Rain = 0
KFR1 020155Z 14004KT 09/M16 A3032 RMK A01 T00901155  RH  016%=      5-min Rain = 0
KFR1 020156Z 14004KT 09/M16 A3032 RMK A01 T00901155  RH  016%=      5-min Rain = 0
KFR1 020157Z 14004KT 09/M16 A3032 RMK A01 T00901155  RH  016%=      5-min Rain = 0
KFR1 020158Z 14004KT 09/M16 A3032 RMK A01 T00901155  RH  016%=      5-min Rain = 0
KFR1 020159Z 15004KT 09/M15 A3032 RMK A01 T00901154  RH  016%=      5-min Rain = 0
KFR1 020200Z 16005KT 09/M16 A3032 RMK A01 T00851155  RH  017%=      5-min Rain = 0
KFR1 020201Z 15006KT 08/M16 A3032 RMK A01 T00761157  RH  017%=      5-min Rain = 0
KFR1 020202Z 16006KT 07/M16 A3032 RMK A01 T00691156  RH  018%=      5-min Rain = 0
KFR1 020203Z 16005KT 07/M16 A3032 RMK A01 T00651156  RH  019%=      5-min Rain = 0
KFR1 020204Z 16006KT 06/M16 A3032 RMK A01 T00621155  RH  019%=      5-min Rain = 0
KFR1 020205Z 16006KT 06/M15 A3032 RMK A01 T00601154  RH  020%=      5-min Rain = 0
KFR1 020206Z 16006KT 06/M15 A3032 RMK A01 T00591154  RH  020%=      5-min Rain = 0
KFR1 020207Z 16006KT 06/M15 A3032 RMK A01 T00591154  RH  020%=      5-min Rain = 0
KFR1 020208Z 16006KT 06/M15 A3032 RMK A01 T00601153  RH  020%=      5-min Rain = 0
KFR1 020209Z 16006KT 06/M15 A3032 RMK A01 T00611153  RH  020%=      5-min Rain = 0
KFR1 020210Z 15006KT 06/M15 A3032 RMK A01 T00631153  RH  020%=      5-min Rain = 0
KFR1 020211Z 16006KT 06/M15 A3032 RMK A01 T00641153  RH  019%=      5-min Rain = 0
KFR1 020212Z 16006KT 07/M15 A3032 RMK A01 T00651153  RH  019%=      5-min Rain = 0
KFR1 020213Z 15006KT 07/M15 A3032 RMK A01 T00661153  RH  019%=      5-min Rain = 0
KFR1 020214Z 15006KT 07/M15 A3032 RMK A01 T00661153  RH  019%=      5-min Rain = 0
KFR1 020215Z 15006KT 07/M15 A3032 RMK A01 T00661153  RH  019%=      5-min Rain = 0
KFR1 020216Z 15006KT 07/M15 A3032 RMK A01 T00671153  RH  019%=      5-min Rain = 0
KFR1 020217Z 15006KT 07/M15 A3032 RMK A01 T00671153  RH  019%=      5-min Rain = 0
KFR1 020218Z 15006KT 07/M15 A3032 RMK A01 T00691153  RH  019%=      5-min Rain = 0
KFR1 020219Z 15006KT 07/M15 A3032 RMK A01 T00701152  RH  019%=      5-min Rain = 0
KFR1 020220Z 15006KT 07/M15 A3032 RMK A01 T00701153  RH  019%=      5-min Rain = 0
KFR1 020221Z 15006KT 07/M15 A3032 RMK A01 T00701153  RH  019%=      5-min Rain = 0
KFR1 020222Z 15006KT 07/M15 A3032 RMK A01 T00701153  RH  019%=      5-min Rain = 0
KFR1 020223Z 15006KT 07/M15 A3032 RMK A01 T00691153  RH  019%=      5-min Rain = 0
KFR1 020224Z 15006KT 07/M15 A3032 RMK A01 T00681153  RH  019%=      5-min Rain = 0
KFR1 020225Z 15006KT 07/M15 A3032 RMK A01 T00661153  RH  019%=      5-min Rain = 0
KFR1 020226Z 16006KT 06/M15 A3032 RMK A01 T00641153  RH  019%=      5-min Rain = 0
KFR1 020227Z 16006KT 06/M15 A3032 RMK A01 T00641153  RH  019%=      5-min Rain = 0
KFR1 020228Z 16006KT 06/M15 A3032 RMK A01 T00631153  RH  020%=      5-min Rain = 0
KFR1 020229Z 16005KT 06/M15 A3032 RMK A01 T00611153  RH  020%=      5-min Rain = 0
KFR1 020230Z 16005KT 06/M15 A3032 RMK A01 T00601153  RH  020%=      5-min Rain = 0
KFR1 020231Z 16005KT 06/M15 A3032 RMK A01 T00591153  RH  020%=      5-min Rain = 0
KFR1 020232Z 16005KT 06/M15 A3032 RMK A01 T00581153  RH  020%=      5-min Rain = 0
KFR1 020233Z 16005KT 06/M15 A3032 RMK A01 T00571153  RH  020%=      5-min Rain = 0
KFR1 020234Z 16005KT 06/M15 A3032 RMK A01 T00571153  RH  020%=      5-min Rain = 0
KFR1 020235Z 16005KT 06/M15 A3032 RMK A01 T00581153  RH  020%=      5-min Rain = 0
KFR1 020236Z 16006KT 06/M15 A3032 RMK A01 T00581154  RH  020%=      5-min Rain = 0
KFR1 020237Z 16006KT 06/M15 A3032 RMK A01 T00591153  RH  020%=      5-min Rain = 0
KFR1 020238Z 16005KT 06/M15 A3032 RMK A01 T00601154  RH  020%=      5-min Rain = 0
KFR1 020239Z 16005KT 06/M15 A3032 RMK A01 T00611153  RH  020%=      5-min Rain = 0
KFR1 020240Z 16005KT 06/M15 A3032 RMK A01 T00611153  RH  020%=      5-min Rain = 0
KFR1 020241Z 16005KT 06/M15 A3032 RMK A01 T00621153  RH  020%=      5-min Rain = 0
KFR1 020242Z 16005KT 06/M15 A3032 RMK A01 T00621154  RH  020%=      5-min Rain = 0
KFR1 020243Z 16005KT 06/M15 A3032 RMK A01 T00621153  RH  020%=      5-min Rain = 0
KFR1 020244Z 16005KT 06/M15 A3032 RMK A01 T00621154  RH  020%=      5-min Rain = 0
KFR1 020245Z 16005KT 06/M15 A3032 RMK A01 T00621153  RH  020%=      5-min Rain = 0
KFR1 020246Z 16005KT 06/M15 A3032 RMK A01 T00621153  RH  020%=      5-min Rain = 0
KFR1 020247Z 16005KT 06/M15 A3032 RMK A01 T00631153  RH  020%=      5-min Rain = 0
KFR1 020248Z 16005KT 06/M15 A3032 RMK A01 T00631153  RH  020%=      5-min Rain = 0
KFR1 020249Z 16005KT 06/M15 A3032 RMK A01 T00641153  RH  020%=      5-min Rain = 0
KFR1 020250Z 16005KT 06/M15 A3032 RMK A01 T00631153  RH  020%=      5-min Rain = 0
KFR1 020251Z 16004KT 06/M15 A3032 RMK A01 T00631153  RH  020%=      5-min Rain = 0
KFR1 020252Z 17004KT 06/M15 A3032 RMK A01 T00611153  RH  020%=      5-min Rain = 0
KFR1 020253Z 17004KT 06/M15 A3032 RMK A01 T00601153  RH  020%=      5-min Rain = 0
KFR1 020254Z 17004KT 06/M15 A3032 RMK A01 T00581153  RH  020%=      5-min Rain = 0
KFR1 020255Z 17004KT 06/M15 A3032 RMK A01 T00571153  RH  020%=      5-min Rain = 0
KFR1 020256Z 17005KT 06/M15 A3032 RMK A01 T00561153  RH  021%=      5-min Rain = 0
KFR1 020257Z 17005KT 06/M15 A3032 RMK A01 T00551153  RH  021%=      5-min Rain = 0
KFR1 020258Z 17006KT 06/M15 A3032 RMK A01 T00551153  RH  021%=      5-min Rain = 0
KFR1 020259Z 17006KT 06/M15 A3032 RMK A01 T00551152  RH  021%=      5-min Rain = 0
KFR1 020300Z 17006KT 05/M15 A3032 RMK A01 T00541153  RH  021%=      5-min Rain = 0
KFR1 020301Z 17006KT 05/M15 A3032 RMK A01 T00541152  RH  021%=      5-min Rain = 0
KFR1 020302Z 17006KT 05/M15 A3032 RMK A01 T00541152  RH  021%=      5-min Rain = 0
KFR1 020303Z 17006KT 05/M15 A3032 RMK A01 T00541152  RH  021%=      5-min Rain = 0
KFR1 020304Z 17006KT 05/M15 A3032 RMK A01 T00541152  RH  021%=      5-min Rain = 0
KFR1 020305Z 17005KT 05/M15 A3032 RMK A01 T00541153  RH  021%=      5-min Rain = 0
KFR1 020306Z 17005KT 06/M15 A3032 RMK A01 T00551152  RH  021%=      5-min Rain = 0
KFR1 020307Z 18005KT 06/M15 A3032 RMK A01 T00551153  RH  021%=      5-min Rain = 0
KFR1 020308Z 18004KT 06/M15 A3032 RMK A01 T00551152  RH  021%=      5-min Rain = 0
KFR1 020309Z 22003KT 05/M15 A3032 RMK A01 T00531152  RH  021%=      5-min Rain = 0
KFR1 020310Z 23004KT 05/M15 A3032 RMK A01 T00511151  RH  022%=      5-min Rain = 0
KFR1 020311Z 22004KT 05/M15 A3032 RMK A01 T00511150  RH  022%=      5-min Rain = 0
KFR1 020312Z 23004KT 05/M15 A3032 RMK A01 T00521150  RH  022%=      5-min Rain = 0
KFR1 020313Z 23005KT 05/M15 A3032 RMK A01 T00531150  RH  021%=      5-min Rain = 0
KFR1 020314Z 22005KT 05/M15 A3032 RMK A01 T00531150  RH  022%=      5-min Rain = 0
KFR1 020315Z 21005KT 05/M15 A3032 RMK A01 T00521149  RH  022%=      5-min Rain = 0
KFR1 020316Z 20005KT 05/M15 A3032 RMK A01 T00501149  RH  022%=      5-min Rain = 0
KFR1 020317Z 19006KT 05/M15 A3032 RMK A01 T00491149  RH  022%=      5-min Rain = 0
KFR1 020318Z 19005KT 05/M15 A3032 RMK A01 T00471149  RH  022%=      5-min Rain = 0
KFR1 020319Z 19004KT 04/M15 A3032 RMK A01 T00441150  RH  023%=      5-min Rain = 0
KFR1 020320Z 18005KT 04/M15 A3032 RMK A01 T00421150  RH  023%=      5-min Rain = 0
KFR1 020321Z 18005KT 04/M15 A3032 RMK A01 T00391150  RH  024%=      5-min Rain = 0
KFR1 020322Z 18005KT 04/M15 A3032 RMK A01 T00381150  RH  024%=      5-min Rain = 0
KFR1 020323Z 18006KT 04/M15 A3032 RMK A01 T00361149  RH  024%=      5-min Rain = 0
KFR1 020324Z 18006KT 04/M15 A3032 RMK A01 T00351149  RH  025%=      5-min Rain = 0
KFR1 020325Z 18006KT 03/M15 A3032 RMK A01 T00341149  RH  025%=      5-min Rain = 0
KFR1 020326Z 18007KT 03/M15 A3032 RMK A01 T00331149  RH  025%=      5-min Rain = 0
KFR1 020327Z 18007KT 04/M15 A3032 RMK A01 T00351147  RH  025%=      5-min Rain = 0
KFR1 020328Z 18007KT 04/M15 A3032 RMK A01 T00361147  RH  025%=      5-min Rain = 0
KFR1 020329Z 18007KT 04/M15 A3032 RMK A01 T00371148  RH  025%=      5-min Rain = 0
KFR1 020330Z 18007KT 04/M15 A3032 RMK A01 T00391147  RH  024%=      5-min Rain = 0
KFR1 020331Z 18006KT 04/M15 A3032 RMK A01 T00401148  RH  024%=      5-min Rain = 0
KFR1 020332Z 18006KT 04/M15 A3032 RMK A01 T00411148  RH  024%=      5-min Rain = 0
KFR1 020333Z 18006KT 04/M15 A3032 RMK A01 T00411148  RH  024%=      5-min Rain = 0
KFR1 020334Z 18006KT 04/M15 A3032 RMK A01 T00411148  RH  024%=      5-min Rain = 0
KFR1 020335Z 18006KT 04/M15 A3032 RMK A01 T00411148  RH  024%=      5-min Rain = 0
KFR1 020336Z 18006KT 04/M15 A3032 RMK A01 T00411148  RH  024%=      5-min Rain = 0
KFR1 020337Z 18006KT 04/M15 A3032 RMK A01 T00411148  RH  024%=      5-min Rain = 0
KFR1 020338Z 18006KT 04/M15 A3032 RMK A01 T00411148  RH  024%=      5-min Rain = 0
KFR1 020339Z 18006KT 04/M15 A3032 RMK A01 T00411148  RH  024%=      5-min Rain = 0
KFR1 020340Z 18006KT 04/M15 A3032 RMK A01 T00411148  RH  024%=      5-min Rain = 0
KFR1 020341Z 18006KT 04/M15 A3032 RMK A01 T00411148  RH  024%=      5-min Rain = 0
KFR1 020342Z 18006KT 04/M15 A3032 RMK A01 T00421147  RH  024%=      5-min Rain = 0
KFR1 020343Z 18006KT 04/M15 A3032 RMK A01 T00411147  RH  024%=      5-min Rain = 0
KFR1 020344Z 17006KT 04/M15 A3032 RMK A01 T00421147  RH  024%=      5-min Rain = 0
KFR1 020345Z 17006KT 04/M15 A3032 RMK A01 T00421147  RH  024%=      5-min Rain = 0
KFR1 020346Z 17006KT 04/M15 A3032 RMK A01 T00431147  RH  024%=      5-min Rain = 0
KFR1 020347Z 17006KT 04/M15 A3032 RMK A01 T00431147  RH  024%=      5-min Rain = 0
KFR1 020348Z 17006KT 04/M15 A3032 RMK A01 T00431147  RH  024%=      5-min Rain = 0
KFR1 020349Z 17006KT 04/M15 A3032 RMK A01 T00431147  RH  024%=      5-min Rain = 0
KFR1 020350Z 17006KT 04/M15 A3032 RMK A01 T00431148  RH  024%=      5-min Rain = 0
KFR1 020351Z 17005KT 04/M15 A3032 RMK A01 T00431148  RH  023%=      5-min Rain = 0
KFR1 020352Z 17005KT 04/M15 A3032 RMK A01 T00431148  RH  023%=      5-min Rain = 0
KFR1 020353Z 17005KT 04/M15 A3032 RMK A01 T00431149  RH  023%=      5-min Rain = 0
KFR1 020354Z 18003KT 04/M15 A3032 RMK A01 T00441148  RH  023%=      5-min Rain = 0
KFR1 020355Z 19003KT 04/M15 A3032 RMK A01 T00441148  RH  023%=      5-min Rain = 0
KFR1 020356Z 19003KT 04/M15 A3032 RMK A01 T00431148  RH  023%=      5-min Rain = 0
KFR1 020357Z 18002KT 04/M15 A3032 RMK A01 T00431147  RH  024%=      5-min Rain = 0
KFR1 020358Z 19002KT 04/M15 A3032 RMK A01 T00411147  RH  024%=      5-min Rain = 0
KFR1 020359Z 17003KT 04/M15 A3032 RMK A01 T00411147  RH  024%=      5-min Rain = 0
KFR1 020400Z 17003KT 04/M15 A3032 RMK A01 T00401147  RH  024%=      5-min Rain = 0
KFR1 020401Z 17003KT 04/M15 A3032 RMK A01 T00401147  RH  024%=      5-min Rain = 0
KFR1 020402Z 17003KT 04/M15 A3032 RMK A01 T00401147  RH  024%=      5-min Rain = 0
KFR1 020403Z 17003KT 04/M15 A3032 RMK A01 T00411147  RH  024%=      5-min Rain = 0
KFR1 020404Z 17004KT 04/M15 A3032 RMK A01 T00421147  RH  024%=      5-min Rain = 0
KFR1 020405Z 17004KT 04/M15 A3032 RMK A01 T00421147  RH  024%=      5-min Rain = 0
KFR1 020406Z 17004KT 04/M15 A3032 RMK A01 T00421147  RH  024%=      5-min Rain = 0
KFR1 020407Z 17004KT 04/M15 A3032 RMK A01 T00421147  RH  024%=      5-min Rain = 0
KFR1 020408Z 17004KT 04/M15 A3032 RMK A01 T00421147  RH  024%=      5-min Rain = 0
KFR1 020409Z 17005KT 04/M15 A3032 RMK A01 T00421147  RH  024%=      5-min Rain = 0
KFR1 020410Z 17005KT 04/M15 A3032 RMK A01 T00421147  RH  024%=      5-min Rain = 0
KFR1 020411Z 17005KT 04/M15 A3032 RMK A01 T00431148  RH  024%=      5-min Rain = 0
KFR1 020412Z 17005KT 04/M15 A3032 RMK A01 T00431148  RH  023%=      5-min Rain = 0
KFR1 020413Z 17005KT 04/M15 A3032 RMK A01 T00441149  RH  023%=      5-min Rain = 0
KFR1 020414Z 17005KT 04/M15 A3032 RMK A01 T00441149  RH  023%=      5-min Rain = 0
KFR1 020415Z 17005KT 05/M15 A3032 RMK A01 T00451149  RH  023%=      5-min Rain = 0
KFR1 020416Z 18005KT 05/M15 A3032 RMK A01 T00451149  RH  023%=      5-min Rain = 0
KFR1 020417Z 18004KT 04/M15 A3032 RMK A01 T00441149  RH  023%=      5-min Rain = 0
KFR1 020418Z 21003KT 04/M15 A3032 RMK A01 T00431148  RH  023%=      5-min Rain = 0
KFR1 020419Z 28004KT 04/M14 A3032 RMK A01 T00401144  RH  025%=      5-min Rain = 0
KFR1 020420Z 28004KT 04/M13 A3032 RMK A01 T00351133  RH  028%=      5-min Rain = 0
KFR1 020421Z 27003KT 03/M13 A3032 RMK A01 T00301127  RH  030%=      5-min Rain = 0
KFR1 020422Z 24003KT 03/M13 A3032 RMK A01 T00291131  RH  030%=      5-min Rain = 0
KFR1 020423Z 22003KT 03/M14 A3032 RMK A01 T00301138  RH  028%=      5-min Rain = 0
KFR1 020424Z 22003KT 03/M14 A3032 RMK A01 T00311139  RH  027%=      5-min Rain = 0
KFR1 020425Z 21003KT 03/M14 A3032 RMK A01 T00311136  RH  028%=      5-min Rain = 0
KFR1 020426Z 21004KT 03/M14 A3032 RMK A01 T00311136  RH  028%=      5-min Rain = 0
KFR1 020427Z 22003KT 03/M13 A3032 RMK A01 T00311134  RH  029%=      5-min Rain = 0
KFR1 020428Z 20004KT 03/M13 A3032 RMK A01 T00271133  RH  029%=      5-min Rain = 0
KFR1 020429Z 18004KT 03/M14 A3032 RMK A01 T00261137  RH  029%=      5-min Rain = 0
KFR1 020430Z 17005KT 03/M14 A3032 RMK A01 T00261140  RH  028%=      5-min Rain = 0
KFR1 020431Z 17004KT 03/M14 A3032 RMK A01 T00271142  RH  028%=      5-min Rain = 0
KFR1 020432Z 17004KT 03/M14 A3032 RMK A01 T00281143  RH  027%=      5-min Rain = 0
KFR1 020433Z 17004KT 03/M14 A3032 RMK A01 T00271144  RH  027%=      5-min Rain = 0
KFR1 020434Z 18004KT 03/M14 A3032 RMK A01 T00261144  RH  027%=      5-min Rain = 0
KFR1 020435Z 18002KT 03/M15 A3032 RMK A01 T00251145  RH  027%=      5-min Rain = 0
KFR1 020436Z 19001KT 02/M14 A3032 RMK A01 T00241144  RH  028%=      5-min Rain = 0
KFR1 020437Z 25002KT 02/M14 A3032 RMK A01 T00231144  RH  028%=      5-min Rain = 0
KFR1 020438Z 25003KT 02/M15 A3032 RMK A01 T00231145  RH  028%=      5-min Rain = 0
KFR1 020439Z 26001KT 02/M15 A3032 RMK A01 T00231146  RH  028%=      5-min Rain = 0
KFR1 020440Z 22001KT 02/M15 A3032 RMK A01 T00231146  RH  027%=      5-min Rain = 0
KFR1 020441Z 21002KT 02/M15 A3032 RMK A01 T00241146  RH  027%=      5-min Rain = 0
KFR1 020442Z 21002KT 02/M15 A3032 RMK A01 T00241146  RH  027%=      5-min Rain = 0
KFR1 020443Z 21002KT 02/M15 A3032 RMK A01 T00241146  RH  027%=      5-min Rain = 0
KFR1 020444Z 23002KT 02/M15 A3032 RMK A01 T00241146  RH  027%=      5-min Rain = 0
KFR1 020445Z 26004KT 02/M15 A3032 RMK A01 T00241146  RH  027%=      5-min Rain = 0
KFR1 020446Z 26004KT 02/M15 A3032 RMK A01 T00241146  RH  027%=      5-min Rain = 0
KFR1 020447Z 26004KT 03/M15 A3032 RMK A01 T00261145  RH  027%=      5-min Rain = 0
KFR1 020448Z 24005KT 03/M15 A3032 RMK A01 T00261146  RH  027%=      5-min Rain = 0
KFR1 020449Z 22006KT 03/M15 A3032 RMK A01 T00261146  RH  027%=      5-min Rain = 0
KFR1 020450Z 21004KT 03/M15 A3032 RMK A01 T00271145  RH  027%=      5-min Rain = 0
KFR1 020451Z 22006KT 03/M14 A3032 RMK A01 T00281144  RH  027%=      5-min Rain = 0
KFR1 020452Z 22005KT 03/M14 A3032 RMK A01 T00261144  RH  027%=      5-min Rain = 0
KFR1 020453Z 22004KT 03/M14 A3032 RMK A01 T00251144  RH  028%=      5-min Rain = 0
KFR1 020454Z 22003KT 02/M14 A3032 RMK A01 T00231144  RH  028%=      5-min Rain = 0
KFR1 020455Z 22004KT 02/M14 A3032 RMK A01 T00211144  RH  028%=      5-min Rain = 0
KFR1 020456Z 22004KT 02/M14 A3032 RMK A01 T00201144  RH  029%=      5-min Rain = 0
KFR1 020457Z 22004KT 02/M14 A3032 RMK A01 T00201144  RH  029%=      5-min Rain = 0
KFR1 020458Z 23003KT 02/M14 A3032 RMK A01 T00201144  RH  029%=      5-min Rain = 0
KFR1 020459Z 25002KT 02/M15 A3032 RMK A01 T00201145  RH  028%=      5-min Rain = 0
KFR1 020500Z 24001KT 02/M15 A3032 RMK A01 T00201145  RH  028%=      5-min Rain = 0
KFR1 020501Z 22002KT 02/M15 A3032 RMK A01 T00211146  RH  028%=      5-min Rain = 0
KFR1 020502Z 22003KT 02/M15 A3032 RMK A01 T00221146  RH  028%=      5-min Rain = 0
KFR1 020503Z 22003KT 02/M15 A3032 RMK A01 T00241145  RH  028%=      5-min Rain = 0
KFR1 020504Z 21002KT 03/M14 A3032 RMK A01 T00251144  RH  027%=      5-min Rain = 0
KFR1 020505Z 20003KT 03/M15 A3032 RMK A01 T00251145  RH  027%=      5-min Rain = 0
KFR1 020506Z 20004KT 03/M15 A3031 RMK A01 T00251145  RH  027%=      5-min Rain = 0
KFR1 020507Z 19003KT 03/M15 A3031 RMK A01 T00251145  RH  027%=      5-min Rain = 0
KFR1 020508Z 19003KT 03/M14 A3031 RMK A01 T00251144  RH  027%=      5-min Rain = 0
KFR1 020509Z 20004KT 02/M14 A3031 RMK A01 T00241144  RH  028%=      5-min Rain = 0
KFR1 020510Z 20003KT 02/M14 A3031 RMK A01 T00241144  RH  028%=      5-min Rain = 0
KFR1 020511Z 20003KT 02/M14 A3031 RMK A01 T00231143  RH  028%=      5-min Rain = 0
KFR1 020512Z 20003KT 02/M14 A3031 RMK A01 T00231144  RH  028%=      5-min Rain = 0
KFR1 020513Z 20003KT 02/M14 A3031 RMK A01 T00221144  RH  028%=      5-min Rain = 0
KFR1 020514Z 20003KT 02/M14 A3031 RMK A01 T00221143  RH  028%=      5-min Rain = 0
KFR1 020515Z 20002KT 02/M14 A3031 RMK A01 T00221144  RH  028%=      5-min Rain = 0
KFR1 020516Z 21003KT 02/M14 A3031 RMK A01 T00221143  RH  028%=      5-min Rain = 0
KFR1 020517Z 22003KT 02/M14 A3031 RMK A01 T00221143  RH  028%=      5-min Rain = 0
KFR1 020518Z 23002KT 02/M14 A3031 RMK A01 T00221143  RH  028%=      5-min Rain = 0
KFR1 020519Z 24002KT 02/M14 A3031 RMK A01 T00211143  RH  029%=      5-min Rain = 0
KFR1 020520Z 25002KT 02/M14 A3031 RMK A01 T00211143  RH  029%=      5-min Rain = 0
KFR1 020521Z 25004KT 02/M14 A3031 RMK A01 T00211143  RH  029%=      5-min Rain = 0
KFR1 020522Z 24004KT 02/M14 A3031 RMK A01 T00211141  RH  029%=      5-min Rain = 0
KFR1 020523Z 24005KT 02/M14 A3031 RMK A01 T00201140  RH  029%=      5-min Rain = 0
KFR1 020524Z 24005KT 02/M14 A3031 RMK A01 T00201139  RH  030%=      5-min Rain = 0
KFR1 020525Z 24005KT 02/M14 A3031 RMK A01 T00221138  RH  029%=      5-min Rain = 0
KFR1 020526Z 24004KT 02/M14 A3031 RMK A01 T00221139  RH  029%=      5-min Rain = 0
KFR1 020527Z 24003KT 02/M14 A3031 RMK A01 T00211139  RH  029%=      5-min Rain = 0
KFR1 020528Z 23004KT 02/M14 A3031 RMK A01 T00201139  RH  030%=      5-min Rain = 0
KFR1 020529Z 24004KT 02/M14 A3031 RMK A01 T00211138  RH  030%=      5-min Rain = 0
KFR1 020530Z 23004KT 02/M14 A3031 RMK A01 T00211138  RH  030%=      5-min Rain = 0
KFR1 020531Z 23004KT 02/M14 A3031 RMK A01 T00201138  RH  030%=      5-min Rain = 0
KFR1 020532Z 22005KT 02/M14 A3031 RMK A01 T00201138  RH  030%=      5-min Rain = 0
KFR1 020533Z 22005KT 02/M14 A3031 RMK A01 T00211138  RH  030%=      5-min Rain = 0
KFR1 020534Z 22006KT 02/M14 A3031 RMK A01 T00221137  RH  030%=      5-min Rain = 0
KFR1 020535Z 22006KT 02/M14 A303 RMK A01 T00231136  RH  030%=      5-min Rain = 0
KFR1 020536Z 23005KT 02/M14 A303 RMK A01 T00231136  RH  030%=      5-min Rain = 0
KFR1 020537Z 22006KT 02/M14 A303 RMK A01 T00231136  RH  030%=      5-min Rain = 0
KFR1 020538Z 22007KT 02/M14 A303 RMK A01 T00221136  RH  030%=      5-min Rain = 0
KFR1 020539Z 22006KT 02/M14 A303 RMK A01 T00221136  RH  030%=      5-min Rain = 0
KFR1 020540Z 22005KT 02/M14 A303 RMK A01 T00231136  RH  030%=      5-min Rain = 0
KFR1 020541Z 24003KT 02/M14 A303 RMK A01 T00211137  RH  030%=      5-min Rain = 0
KFR1 020542Z 23003KT 02/M14 A303 RMK A01 T00191138  RH  030%=      5-min Rain = 0
KFR1 020543Z 23003KT 02/M14 A303 RMK A01 T00191137  RH  030%=      5-min Rain = 0
KFR1 020544Z 22004KT 02/M14 A303 RMK A01 T00181138  RH  030%=      5-min Rain = 0
KFR1 020545Z 22004KT 02/M14 A303 RMK A01 T00181138  RH  030%=      5-min Rain = 0
KFR1 020546Z 23005KT 02/M14 A303 RMK A01 T00181138  RH  031%=      5-min Rain = 0
KFR1 020547Z 22005KT 02/M14 A303 RMK A01 T00181137  RH  031%=      5-min Rain = 0
KFR1 020548Z 22004KT 02/M14 A303 RMK A01 T00181137  RH  031%=      5-min Rain = 0
KFR1 020549Z 22005KT 02/M14 A303 RMK A01 T00181137  RH  031%=      5-min Rain = 0
KFR1 020550Z 21005KT 02/M14 A303 RMK A01 T00171136  RH  031%=      5-min Rain = 0
KFR1 020551Z 21004KT 02/M14 A303 RMK A01 T00171136  RH  031%=      5-min Rain = 0
KFR1 020552Z 21004KT 02/M14 A303 RMK A01 T00171136  RH  031%=      5-min Rain = 0
KFR1 020553Z 21004KT 02/M14 A303 RMK A01 T00171136  RH  031%=      5-min Rain = 0
KFR1 020554Z 21003KT 02/M14 A303 RMK A01 T00161137  RH  031%=      5-min Rain = 0
KFR1 020555Z 21004KT 02/M14 A303 RMK A01 T00151137  RH  031%=      5-min Rain = 0
KFR1 020556Z 22004KT 01/M14 A303 RMK A01 T00141137  RH  032%=      5-min Rain = 0
KFR1 020557Z 22004KT 01/M14 A303 RMK A01 T00121137  RH  032%=      5-min Rain = 0
KFR1 020558Z 22004KT 01/M14 A303 RMK A01 T00111137  RH  032%=      5-min Rain = 0
KFR1 020559Z 22004KT 01/M14 A303 RMK A01 T00111137  RH  032%=      5-min Rain = 0

Page generated in 0.0696 seconds.